GTI7478 KPAE-KCVG
Flight info
| Callsign | GTI7478 |
|---|---|
| Flight time | 5h 3m |
| Altitude | 17000 |
| Route | SEA V120 EAT/N0491F370 4700N11924W/N0489F380 4723N11930W/N0491F370 4714N11915W 4712N11901W 4714N11848W 4728N11831W 4714N11816W 4711N11803W 4714N11750W 4722N11733W/N0489F380 4707N11739W 4708N11811W 4708N11856W 4706N11926W/N0491F370 4637N11918W 4638N11909W 4657N11856W/N0489F380 4657N11913W 4701N11913W/N0491F370 4701N11849W/N0489F380 4637N11904W/N0491F370 4638N11831W/N0488F380 4657N11831W 4645N11841W/N0489F370 4645N11831W/N0489F390 4643N11831W/N0489F380 4643N11849W/N0488F390 4701N11834W 4701N11827W 4638N11826W 4638N11813W 4657N11800W/N0489F380 4657N11816W 4701N11816W/N0488F390 4701N11753W/N0489F380 4637N11807W/N0488F390 4637N11749W/N0488F380 4707N11739W 4713N11737W/N0488F390 HLN DPR MCW JOT CEGRM5 |
| Aircraft | B748/H-SDE3FGHIM1M2RWXY/LB1 |
Departure
| Time | 2026-04-21 05:40 |
|---|---|
| Airport | Seattle Paine Field International Airport (KPAE) |
Arrival
| Time | 2026-04-21 10:43 |
|---|---|
| Airport | Cincinnati Northern Kentucky International Airport (KCVG) |
| Time | Latitude | Longitude | Altitude | Speed | Heading |
|---|---|---|---|---|---|
| 2026-04-21 05:22 | 47.91872 | -122.28156 | 586 ft | 0 kts | 270° |
| 2026-04-21 05:36 | 47.91872 | -122.28165 | 588 ft | 2 kts | 270° |
| 2026-04-21 05:36 | 47.91873 | -122.28208 | 587 ft | 5 kts | 274° |
| 2026-04-21 05:36 | 47.91880 | -122.28278 | 588 ft | 9 kts | 284° |
| 2026-04-21 05:36 | 47.91897 | -122.28347 | 593 ft | 4 kts | 296° |
| 2026-04-21 05:37 | 47.91913 | -122.28371 | 597 ft | 3 kts | 328° |
| 2026-04-21 05:37 | 47.91937 | -122.28380 | 594 ft | 5 kts | 347° |
| 2026-04-21 05:37 | 47.91981 | -122.28394 | 595 ft | 8 kts | 350° |
| 2026-04-21 05:37 | 47.92054 | -122.28410 | 593 ft | 13 kts | 353° |
| 2026-04-21 05:38 | 47.92129 | -122.28437 | 594 ft | 6 kts | 334° |
| 2026-04-21 05:38 | 47.92138 | -122.28449 | 594 ft | 2 kts | 311° |
| 2026-04-21 05:38 | 47.92143 | -122.28475 | 594 ft | 2 kts | 272° |
| 2026-04-21 05:38 | 47.92137 | -122.28542 | 595 ft | 9 kts | 251° |
| 2026-04-21 05:39 | 47.92086 | -122.28576 | 595 ft | 10 kts | 185° |
| 2026-04-21 05:39 | 47.92058 | -122.28577 | 595 ft | 6 kts | 180° |
| 2026-04-21 05:39 | 47.91976 | -122.28569 | 594 ft | 13 kts | 167° |
| 2026-04-21 05:39 | 47.91641 | -122.28571 | 596 ft | 99 kts | 180° |
| 2026-04-21 05:40 | 47.90622 | -122.28551 | 613 ft | 190 kts | 179° |
| 2026-04-21 05:40 | 47.89142 | -122.28534 | 999 ft | 222 kts | 180° |
| 2026-04-21 05:40 | 47.87590 | -122.28618 | 1907 ft | 217 kts | 185° |
| 2026-04-21 05:40 | 47.86061 | -122.28851 | 2397 ft | 227 kts | 185° |
| 2026-04-21 05:41 | 47.84448 | -122.28997 | 2618 ft | 237 kts | 182° |
| 2026-04-21 05:41 | 47.82768 | -122.29062 | 2834 ft | 245 kts | 181° |
| 2026-04-21 05:41 | 47.81048 | -122.29127 | 3077 ft | 249 kts | 182° |
| 2026-04-21 05:41 | 47.79307 | -122.29213 | 3392 ft | 252 kts | 182° |
| 2026-04-21 05:42 | 47.77605 | -122.29301 | 3674 ft | 258 kts | 182° |
| 2026-04-21 05:42 | 47.75793 | -122.29391 | 3965 ft | 262 kts | 182° |
| 2026-04-21 05:42 | 47.73959 | -122.29480 | 4284 ft | 265 kts | 182° |
| 2026-04-21 05:42 | 47.72110 | -122.29422 | 4566 ft | 268 kts | 168° |
| 2026-04-21 05:43 | 47.70448 | -122.28223 | 4866 ft | 269 kts | 137° |
| 2026-04-21 05:43 | 47.69333 | -122.26046 | 5514 ft | 268 kts | 120° |
| 2026-04-21 05:43 | 47.68360 | -122.23637 | 6238 ft | 276 kts | 121° |
| 2026-04-21 05:43 | 47.67286 | -122.21252 | 6984 ft | 279 kts | 126° |
| 2026-04-21 05:44 | 47.66132 | -122.18972 | 7764 ft | 281 kts | 128° |
| 2026-04-21 05:44 | 47.64959 | -122.16650 | 8559 ft | 282 kts | 127° |
| 2026-04-21 05:44 | 47.63806 | -122.14291 | 9348 ft | 283 kts | 128° |
| 2026-04-21 05:44 | 47.62650 | -122.11914 | 10089 ft | 286 kts | 128° |
| 2026-04-21 05:45 | 47.61454 | -122.09482 | 10561 ft | 298 kts | 128° |
| 2026-04-21 05:45 | 47.60201 | -122.06947 | 10935 ft | 312 kts | 128° |
| 2026-04-21 05:45 | 47.58889 | -122.04285 | 11291 ft | 328 kts | 128° |
| 2026-04-21 05:45 | 47.57510 | -122.01483 | 11629 ft | 345 kts | 129° |
| 2026-04-21 05:46 | 47.56063 | -121.98549 | 11953 ft | 361 kts | 129° |
| 2026-04-21 05:46 | 47.54545 | -121.95479 | 12274 ft | 378 kts | 129° |
| 2026-04-21 05:46 | 47.52992 | -121.92338 | 12752 ft | 389 kts | 129° |
| 2026-04-21 05:46 | 47.51375 | -121.89069 | 13343 ft | 396 kts | 129° |
| 2026-04-21 05:47 | 47.49737 | -121.85764 | 13951 ft | 402 kts | 129° |
| 2026-04-21 05:47 | 47.48075 | -121.82415 | 14521 ft | 406 kts | 129° |
| 2026-04-21 05:47 | 47.46395 | -121.79034 | 15069 ft | 409 kts | 129° |
| 2026-04-21 05:47 | 47.44805 | -121.75529 | 15620 ft | 415 kts | 121° |
| 2026-04-21 05:48 | 47.43646 | -121.71604 | 16115 ft | 422 kts | 111° |
| 2026-04-21 05:48 | 47.42985 | -121.67336 | 16623 ft | 430 kts | 100° |
| 2026-04-21 05:48 | 47.42816 | -121.62885 | 16882 ft | 438 kts | 95° |
| 2026-04-21 05:48 | 47.42753 | -121.58381 | 16880 ft | 437 kts | 94° |
| 2026-04-21 05:49 | 47.42709 | -121.53962 | 16874 ft | 437 kts | 94° |
| 2026-04-21 05:49 | 47.42642 | -121.49483 | 16874 ft | 437 kts | 94° |
| 2026-04-21 05:49 | 47.42561 | -121.44964 | 16887 ft | 440 kts | 94° |
| 2026-04-21 05:49 | 47.42488 | -121.40461 | 16892 ft | 439 kts | 94° |
| 2026-04-21 05:50 | 47.42420 | -121.35946 | 16887 ft | 440 kts | 94° |
| 2026-04-21 05:50 | 47.42347 | -121.31426 | 16886 ft | 440 kts | 94° |
| 2026-04-21 05:50 | 47.42269 | -121.26919 | 16876 ft | 439 kts | 95° |
| 2026-04-21 05:50 | 47.42186 | -121.22404 | 16889 ft | 440 kts | 94° |
| 2026-04-21 05:51 | 47.42109 | -121.17895 | 16878 ft | 439 kts | 94° |
| 2026-04-21 05:51 | 47.42029 | -121.13382 | 16898 ft | 440 kts | 94° |
| 2026-04-21 05:51 | 47.41945 | -121.08935 | 16868 ft | 438 kts | 94° |
| 2026-04-21 05:51 | 47.41858 | -121.04435 | 16874 ft | 439 kts | 94° |
| 2026-04-21 05:52 | 47.41772 | -120.99942 | 16860 ft | 437 kts | 94° |
| 2026-04-21 05:52 | 47.41683 | -120.95418 | 16862 ft | 441 kts | 94° |
| 2026-04-21 05:52 | 47.41594 | -120.90937 | 16880 ft | 443 kts | 95° |
| 2026-04-21 05:52 | 47.41499 | -120.86386 | 16853 ft | 440 kts | 95° |
| 2026-04-21 05:53 | 47.41404 | -120.81860 | 16854 ft | 441 kts | 95° |
| 2026-04-21 05:53 | 47.41309 | -120.77337 | 16853 ft | 441 kts | 95° |
| 2026-04-21 05:53 | 47.41210 | -120.72808 | 16847 ft | 441 kts | 95° |
| 2026-04-21 05:53 | 47.41111 | -120.68303 | 16833 ft | 437 kts | 95° |
| 2026-04-21 05:54 | 47.41015 | -120.63902 | 16843 ft | 412 kts | 95° |
| 2026-04-21 05:54 | 47.40923 | -120.59795 | 16812 ft | 408 kts | 95° |
| 2026-04-21 05:54 | 47.40815 | -120.55519 | 16827 ft | 426 kts | 95° |
| 2026-04-21 05:54 | 47.40709 | -120.51079 | 16820 ft | 437 kts | 95° |
| 2026-04-21 05:55 | 47.40609 | -120.46556 | 16815 ft | 447 kts | 94° |
| 2026-04-21 05:55 | 47.40504 | -120.42010 | 16818 ft | 439 kts | 95° |
| 2026-04-21 05:55 | 47.40389 | -120.37457 | 16825 ft | 444 kts | 95° |
| 2026-04-21 05:55 | 47.40272 | -120.32909 | 16824 ft | 444 kts | 95° |
| 2026-04-21 05:56 | 47.40159 | -120.28356 | 16824 ft | 444 kts | 95° |
| 2026-04-21 05:56 | 47.39763 | -120.23864 | 16830 ft | 440 kts | 106° |
| 2026-04-21 05:56 | 47.38826 | -120.19651 | 16842 ft | 436 kts | 116° |
| 2026-04-21 05:56 | 47.37373 | -120.15756 | 16821 ft | 432 kts | 127° |
| 2026-04-21 05:57 | 47.35635 | -120.12153 | 16831 ft | 431 kts | 128° |
| 2026-04-21 05:57 | 47.33879 | -120.08564 | 16830 ft | 431 kts | 129° |
| 2026-04-21 05:57 | 47.32119 | -120.04981 | 16817 ft | 431 kts | 129° |
| 2026-04-21 05:57 | 47.30367 | -120.01392 | 16819 ft | 431 kts | 128° |
| 2026-04-21 05:58 | 47.28616 | -119.97804 | 16800 ft | 431 kts | 129° |
| 2026-04-21 05:58 | 47.26861 | -119.94227 | 16786 ft | 432 kts | 128° |
| 2026-04-21 05:58 | 47.25099 | -119.90641 | 16781 ft | 432 kts | 128° |
| 2026-04-21 05:58 | 47.23362 | -119.87107 | 16781 ft | 432 kts | 128° |
| 2026-04-21 05:59 | 47.21602 | -119.83526 | 16795 ft | 432 kts | 128° |
| 2026-04-21 05:59 | 47.19839 | -119.79948 | 16793 ft | 432 kts | 128° |
| 2026-04-21 05:59 | 47.18076 | -119.76375 | 16782 ft | 431 kts | 128° |
| 2026-04-21 06:00 | 47.14548 | -119.69238 | 16787 ft | 431 kts | 128° |
| 2026-04-21 06:00 | 47.12784 | -119.65676 | 16794 ft | 432 kts | 129° |
| 2026-04-21 06:00 | 47.11019 | -119.62115 | 16792 ft | 431 kts | 128° |
| 2026-04-21 06:00 | 47.09538 | -119.58336 | 16787 ft | 436 kts | 115° |
| 2026-04-21 06:01 | 47.08674 | -119.54053 | 16799 ft | 441 kts | 102° |
| 2026-04-21 06:01 | 47.08507 | -119.49554 | 16788 ft | 445 kts | 88° |
| 2026-04-21 06:01 | 47.09054 | -119.45080 | 16804 ft | 448 kts | 75° |
| 2026-04-21 06:01 | 47.10287 | -119.40877 | 16805 ft | 451 kts | 61° |
| 2026-04-21 06:02 | 47.12149 | -119.37165 | 16814 ft | 453 kts | 47° |
| 2026-04-21 06:02 | 47.14537 | -119.34161 | 16829 ft | 454 kts | 34° |
| 2026-04-21 06:02 | 47.17327 | -119.32016 | 16812 ft | 454 kts | 20° |
| 2026-04-21 06:02 | 47.20372 | -119.30845 | 16822 ft | 452 kts | 8° |
| 2026-04-21 06:03 | 47.23436 | -119.30202 | 16828 ft | 451 kts | 5° |
| 2026-04-21 06:03 | 47.26562 | -119.30005 | 16821 ft | 449 kts | 355° |
| 2026-04-21 06:03 | 47.29633 | -119.30675 | 16826 ft | 446 kts | 343° |
| 2026-04-21 06:03 | 47.32504 | -119.32331 | 16822 ft | 442 kts | 329° |
| 2026-04-21 06:04 | 47.35011 | -119.34892 | 16816 ft | 437 kts | 315° |
| 2026-04-21 06:04 | 47.37024 | -119.38210 | 16814 ft | 433 kts | 302° |
| 2026-04-21 06:04 | 47.38435 | -119.42093 | 16818 ft | 428 kts | 288° |
| 2026-04-21 06:04 | 47.39174 | -119.46316 | 16815 ft | 424 kts | 275° |
| 2026-04-21 06:05 | 47.39203 | -119.50638 | 16818 ft | 420 kts | 261° |
| 2026-04-21 06:05 | 47.38529 | -119.54808 | 16804 ft | 418 kts | 248° |
| 2026-04-21 06:05 | 47.37192 | -119.58595 | 16821 ft | 416 kts | 234° |
| 2026-04-21 06:05 | 47.35278 | -119.61767 | 16815 ft | 415 kts | 220° |
| 2026-04-21 06:06 | 47.32931 | -119.64118 | 16820 ft | 414 kts | 207° |
| 2026-04-21 06:06 | 47.30231 | -119.65576 | 16815 ft | 415 kts | 193° |
| 2026-04-21 06:06 | 47.27362 | -119.66016 | 16820 ft | 417 kts | 180° |
| 2026-04-21 06:06 | 47.24485 | -119.65409 | 16815 ft | 420 kts | 166° |
| 2026-04-21 06:07 | 47.21779 | -119.63786 | 16816 ft | 423 kts | 153° |
| 2026-04-21 06:07 | 47.19392 | -119.61229 | 16816 ft | 427 kts | 139° |
| 2026-04-21 06:07 | 47.17468 | -119.57876 | 16810 ft | 432 kts | 125° |
| 2026-04-21 06:07 | 47.16125 | -119.53908 | 16822 ft | 437 kts | 111° |
| 2026-04-21 06:08 | 47.15566 | -119.49500 | 16831 ft | 442 kts | 97° |
| 2026-04-21 06:08 | 47.15468 | -119.44981 | 16819 ft | 445 kts | 90° |
| 2026-04-21 06:08 | 47.15647 | -119.40446 | 16824 ft | 446 kts | 86° |
| 2026-04-21 06:08 | 47.16182 | -119.36017 | 16818 ft | 448 kts | 77° |
| 2026-04-21 06:09 | 47.17211 | -119.31692 | 16824 ft | 450 kts | 67° |
| 2026-04-21 06:09 | 47.18693 | -119.27632 | 16819 ft | 451 kts | 63° |
| 2026-04-21 06:09 | 47.20191 | -119.23577 | 16820 ft | 452 kts | 63° |
| 2026-04-21 06:09 | 47.21377 | -119.19325 | 16826 ft | 450 kts | 76° |
| 2026-04-21 06:10 | 47.21913 | -119.14813 | 16821 ft | 447 kts | 88° |
| 2026-04-21 06:10 | 47.21796 | -119.10275 | 16820 ft | 443 kts | 101° |
| 2026-04-21 06:10 | 47.21113 | -119.05872 | 16813 ft | 441 kts | 107° |
| 2026-04-21 06:10 | 47.20674 | -119.01389 | 16807 ft | 446 kts | 93° |
| 2026-04-21 06:11 | 47.20932 | -118.96902 | 16810 ft | 449 kts | 81° |
| 2026-04-21 06:11 | 47.21477 | -118.92382 | 16817 ft | 448 kts | 82° |
| 2026-04-21 06:11 | 47.22041 | -118.87881 | 16812 ft | 449 kts | 78° |
| 2026-04-21 06:11 | 47.23034 | -118.83520 | 16817 ft | 453 kts | 66° |
| 2026-04-21 06:12 | 47.24597 | -118.79502 | 16822 ft | 453 kts | 55° |
| 2026-04-21 06:12 | 47.26661 | -118.76010 | 16817 ft | 454 kts | 43° |
| 2026-04-21 06:12 | 47.29075 | -118.73020 | 16822 ft | 453 kts | 39° |
| 2026-04-21 06:12 | 47.31514 | -118.70081 | 16821 ft | 453 kts | 41° |
| 2026-04-21 06:13 | 47.33633 | -118.66651 | 16828 ft | 453 kts | 54° |
| 2026-04-21 06:13 | 47.35243 | -118.62672 | 16826 ft | 452 kts | 66° |
| 2026-04-21 06:13 | 47.36273 | -118.58374 | 16823 ft | 450 kts | 78° |
| 2026-04-21 06:13 | 47.36715 | -118.53832 | 16817 ft | 448 kts | 89° |
| 2026-04-21 06:14 | 47.36544 | -118.49266 | 16832 ft | 445 kts | 101° |
| 2026-04-21 06:14 | 47.35779 | -118.44872 | 16827 ft | 442 kts | 112° |
| 2026-04-21 06:14 | 47.34459 | -118.40807 | 16832 ft | 438 kts | 124° |
| 2026-04-21 06:14 | 47.32647 | -118.37221 | 16824 ft | 435 kts | 135° |
| 2026-04-21 06:15 | 47.30424 | -118.34240 | 16829 ft | 431 kts | 145° |
| 2026-04-21 06:15 | 47.28005 | -118.31635 | 16823 ft | 431 kts | 146° |
| 2026-04-21 06:15 | 47.25669 | -118.28859 | 16820 ft | 434 kts | 137° |
| 2026-04-21 06:15 | 47.23714 | -118.25470 | 16821 ft | 437 kts | 127° |
| 2026-04-21 06:16 | 47.22241 | -118.21613 | 16823 ft | 441 kts | 116° |
| 2026-04-21 06:16 | 47.21187 | -118.17374 | 16828 ft | 442 kts | 111° |
| 2026-04-21 06:16 | 47.20196 | -118.13089 | 16824 ft | 442 kts | 110° |
| 2026-04-21 06:16 | 47.19420 | -118.08707 | 16824 ft | 445 kts | 101° |
| 2026-04-21 06:17 | 47.19231 | -118.04161 | 16820 ft | 448 kts | 89° |
| 2026-04-21 06:17 | 47.19626 | -117.99786 | 16818 ft | 450 kts | 78° |
| 2026-04-21 06:17 | 47.20576 | -117.95264 | 16824 ft | 451 kts | 72° |
| 2026-04-21 06:17 | 47.21585 | -117.90900 | 16814 ft | 451 kts | 72° |
| 2026-04-21 06:18 | 47.22607 | -117.86529 | 16821 ft | 453 kts | 72° |
| 2026-04-21 06:18 | 47.23894 | -117.82303 | 16831 ft | 454 kts | 60° |
| 2026-04-21 06:18 | 47.25585 | -117.78453 | 16826 ft | 454 kts | 60° |
| 2026-04-21 06:18 | 47.26855 | -117.74222 | 16825 ft | 452 kts | 74° |
| 2026-04-21 06:19 | 47.27444 | -117.69693 | 16832 ft | 450 kts | 88° |
| 2026-04-21 06:19 | 47.27324 | -117.65127 | 16835 ft | 446 kts | 101° |
| 2026-04-21 06:19 | 47.26508 | -117.60744 | 16834 ft | 442 kts | 115° |
| 2026-04-21 06:19 | 47.25044 | -117.56798 | 16847 ft | 438 kts | 128° |
| 2026-04-21 06:20 | 47.23026 | -117.53497 | 16829 ft | 433 kts | 142° |
| 2026-04-21 06:20 | 47.20561 | -117.51007 | 16834 ft | 428 kts | 155° |
| 2026-04-21 06:20 | 47.17791 | -117.49473 | 16850 ft | 424 kts | 169° |
| 2026-04-21 06:20 | 47.14891 | -117.49382 | 16827 ft | 418 kts | 193° |
| 2026-04-21 06:21 | 47.12375 | -117.51301 | 16848 ft | 416 kts | 216° |
| 2026-04-21 06:21 | 47.10258 | -117.54166 | 16837 ft | 415 kts | 230° |
| 2026-04-21 06:21 | 47.08682 | -117.57707 | 16838 ft | 416 kts | 243° |
| 2026-04-21 06:21 | 47.07741 | -117.61719 | 16838 ft | 418 kts | 257° |
| 2026-04-21 06:22 | 47.07491 | -117.65967 | 16837 ft | 421 kts | 270° |
| 2026-04-21 06:22 | 47.07950 | -117.70222 | 16826 ft | 425 kts | 284° |
| 2026-04-21 06:22 | 47.09061 | -117.74255 | 16829 ft | 428 kts | 292° |
| 2026-04-21 06:22 | 47.10279 | -117.78231 | 16822 ft | 428 kts | 290° |
| 2026-04-21 06:23 | 47.11362 | -117.82295 | 16821 ft | 426 kts | 287° |
| 2026-04-21 06:23 | 47.12228 | -117.86443 | 16816 ft | 425 kts | 282° |
| 2026-04-21 06:23 | 47.12757 | -117.90631 | 16822 ft | 422 kts | 274° |
| 2026-04-21 06:23 | 47.12875 | -117.94920 | 16820 ft | 420 kts | 268° |
| 2026-04-21 06:24 | 47.12818 | -117.99215 | 16814 ft | 422 kts | 266° |
| 2026-04-21 06:24 | 47.12805 | -118.03521 | 16817 ft | 422 kts | 270° |
| 2026-04-21 06:24 | 47.12984 | -118.07827 | 16816 ft | 423 kts | 272° |
| 2026-04-21 06:24 | 47.13193 | -118.12134 | 16818 ft | 423 kts | 271° |
| 2026-04-21 06:25 | 47.13308 | -118.16443 | 16816 ft | 422 kts | 270° |
| 2026-04-21 06:25 | 47.13346 | -118.20745 | 16817 ft | 421 kts | 268° |
| 2026-04-21 06:25 | 47.13344 | -118.25049 | 16818 ft | 421 kts | 268° |
| 2026-04-21 06:25 | 47.13362 | -118.29295 | 16818 ft | 421 kts | 269° |
| 2026-04-21 06:26 | 47.13379 | -118.33595 | 16810 ft | 421 kts | 268° |
| 2026-04-21 06:26 | 47.13384 | -118.37897 | 16810 ft | 421 kts | 268° |
| 2026-04-21 06:26 | 47.13386 | -118.42202 | 16810 ft | 421 kts | 268° |
| 2026-04-21 06:26 | 47.13390 | -118.46503 | 16815 ft | 421 kts | 268° |
| 2026-04-21 06:27 | 47.13395 | -118.50805 | 16810 ft | 421 kts | 268° |
| 2026-04-21 06:27 | 47.13397 | -118.55106 | 16810 ft | 421 kts | 268° |
| 2026-04-21 06:27 | 47.13395 | -118.59411 | 16811 ft | 421 kts | 268° |
| 2026-04-21 06:27 | 47.13393 | -118.63709 | 16810 ft | 421 kts | 268° |
| 2026-04-21 06:28 | 47.13389 | -118.68009 | 16807 ft | 421 kts | 268° |
| 2026-04-21 06:28 | 47.13384 | -118.72316 | 16807 ft | 422 kts | 268° |
| 2026-04-21 06:28 | 47.13377 | -118.76564 | 16808 ft | 422 kts | 268° |
| 2026-04-21 06:28 | 47.13369 | -118.80888 | 16811 ft | 423 kts | 268° |
| 2026-04-21 06:29 | 47.13358 | -118.85210 | 16810 ft | 423 kts | 268° |
| 2026-04-21 06:29 | 47.13346 | -118.89531 | 16803 ft | 423 kts | 268° |
| 2026-04-21 06:29 | 47.13304 | -118.93851 | 16804 ft | 422 kts | 264° |
| 2026-04-21 06:29 | 47.13027 | -118.98126 | 16807 ft | 421 kts | 262° |
| 2026-04-21 06:30 | 47.12743 | -119.02412 | 16808 ft | 421 kts | 263° |
| 2026-04-21 06:30 | 47.12463 | -119.06694 | 16813 ft | 421 kts | 263° |
| 2026-04-21 06:30 | 47.12184 | -119.10980 | 16818 ft | 422 kts | 263° |
| 2026-04-21 06:30 | 47.11904 | -119.15210 | 16821 ft | 422 kts | 262° |
| 2026-04-21 06:31 | 47.11599 | -119.19498 | 16819 ft | 422 kts | 259° |
| 2026-04-21 06:31 | 47.10883 | -119.23654 | 16809 ft | 420 kts | 249° |
| 2026-04-21 06:31 | 47.09667 | -119.27524 | 16804 ft | 417 kts | 238° |
| 2026-04-21 06:31 | 47.07995 | -119.30989 | 16791 ft | 416 kts | 228° |
| 2026-04-21 06:32 | 47.05926 | -119.33935 | 16796 ft | 415 kts | 218° |
| 2026-04-21 06:32 | 47.03525 | -119.36276 | 16799 ft | 414 kts | 208° |
| 2026-04-21 06:32 | 47.00880 | -119.37934 | 16787 ft | 415 kts | 198° |
| 2026-04-21 06:32 | 46.98067 | -119.38858 | 16800 ft | 415 kts | 188° |
| 2026-04-21 06:33 | 46.95181 | -119.39015 | 16796 ft | 416 kts | 178° |
| 2026-04-21 06:33 | 46.92304 | -119.38427 | 16792 ft | 418 kts | 171° |
| 2026-04-21 06:33 | 46.89481 | -119.37650 | 16790 ft | 418 kts | 171° |
| 2026-04-21 06:33 | 46.86621 | -119.36855 | 16791 ft | 418 kts | 171° |
| 2026-04-21 06:34 | 46.83766 | -119.36063 | 16784 ft | 418 kts | 171° |
| 2026-04-21 06:34 | 46.80911 | -119.35279 | 16786 ft | 418 kts | 171° |
| 2026-04-21 06:34 | 46.78052 | -119.34495 | 16793 ft | 418 kts | 171° |
| 2026-04-21 06:34 | 46.75193 | -119.33709 | 16786 ft | 418 kts | 171° |
| 2026-04-21 06:35 | 46.72340 | -119.32923 | 16784 ft | 417 kts | 171° |
| 2026-04-21 06:35 | 46.69489 | -119.32142 | 16778 ft | 417 kts | 171° |
| 2026-04-21 06:35 | 46.66711 | -119.31140 | 16779 ft | 420 kts | 161° |
| 2026-04-21 06:35 | 46.64104 | -119.29194 | 16786 ft | 424 kts | 148° |
| 2026-04-21 06:36 | 46.61870 | -119.26376 | 16787 ft | 428 kts | 134° |
| 2026-04-21 06:36 | 46.60137 | -119.22828 | 16790 ft | 434 kts | 121° |
| 2026-04-21 06:36 | 46.59009 | -119.18746 | 16791 ft | 439 kts | 107° |
| 2026-04-21 06:36 | 46.58556 | -119.14340 | 16795 ft | 444 kts | 94° |
| 2026-04-21 06:37 | 46.58810 | -119.09863 | 16789 ft | 448 kts | 81° |
| 2026-04-21 06:37 | 46.59768 | -119.05536 | 16789 ft | 453 kts | 67° |
| 2026-04-21 06:37 | 46.61379 | -119.01605 | 16790 ft | 454 kts | 53° |
| 2026-04-21 06:37 | 46.63558 | -118.98295 | 16799 ft | 455 kts | 40° |
| 2026-04-21 06:38 | 46.66166 | -118.95790 | 16791 ft | 456 kts | 26° |
| 2026-04-21 06:38 | 46.69127 | -118.94169 | 16798 ft | 455 kts | 13° |
| 2026-04-21 06:38 | 46.72253 | -118.93552 | 16791 ft | 453 kts | 359° |
| 2026-04-21 06:38 | 46.75388 | -118.93891 | 16804 ft | 452 kts | 350° |
| 2026-04-21 06:39 | 46.78491 | -118.94595 | 16791 ft | 452 kts | 349° |
| 2026-04-21 06:39 | 46.81552 | -118.95566 | 16796 ft | 449 kts | 340° |
| 2026-04-21 06:39 | 46.84521 | -118.96990 | 16796 ft | 449 kts | 339° |
| 2026-04-21 06:39 | 46.87420 | -118.98658 | 16792 ft | 446 kts | 333° |
| 2026-04-21 06:40 | 46.90161 | -119.00760 | 16800 ft | 444 kts | 324° |
| 2026-04-21 06:40 | 46.92524 | -119.03605 | 16798 ft | 439 kts | 311° |
| 2026-04-21 06:40 | 46.94335 | -119.07090 | 16794 ft | 434 kts | 297° |
| 2026-04-21 06:40 | 46.95544 | -119.11097 | 16803 ft | 429 kts | 284° |
| 2026-04-21 06:41 | 46.96066 | -119.15363 | 16797 ft | 425 kts | 270° |
| 2026-04-21 06:41 | 46.96267 | -119.19678 | 16800 ft | 428 kts | 278° |
| 2026-04-21 06:41 | 46.97136 | -119.23854 | 16798 ft | 433 kts | 291° |
| 2026-04-21 06:41 | 46.98672 | -119.27665 | 16801 ft | 437 kts | 305° |
| 2026-04-21 06:42 | 47.00790 | -119.30878 | 16787 ft | 442 kts | 319° |
| 2026-04-21 06:42 | 47.03384 | -119.33312 | 16801 ft | 445 kts | 332° |
| 2026-04-21 06:42 | 47.06310 | -119.34825 | 16796 ft | 449 kts | 346° |
| 2026-04-21 06:42 | 47.09377 | -119.35328 | 16807 ft | 451 kts | 359° |
| 2026-04-21 06:43 | 47.12494 | -119.34800 | 16826 ft | 453 kts | 13° |
| 2026-04-21 06:43 | 47.15463 | -119.33249 | 16825 ft | 454 kts | 26° |
| 2026-04-21 06:43 | 47.18116 | -119.30758 | 16829 ft | 453 kts | 40° |
| 2026-04-21 06:43 | 47.20314 | -119.27461 | 16829 ft | 451 kts | 53° |
| 2026-04-21 06:44 | 47.21944 | -119.23532 | 16822 ft | 450 kts | 67° |
| 2026-04-21 06:44 | 47.22919 | -119.19188 | 16830 ft | 447 kts | 80° |
| 2026-04-21 06:44 | 47.23195 | -119.14653 | 16822 ft | 444 kts | 94° |
| 2026-04-21 06:44 | 47.22757 | -119.10183 | 16824 ft | 440 kts | 107° |
| 2026-04-21 06:45 | 47.21641 | -119.06027 | 16804 ft | 436 kts | 121° |
| 2026-04-21 06:45 | 47.19938 | -119.02446 | 16810 ft | 432 kts | 134° |
| 2026-04-21 06:45 | 47.17706 | -118.99546 | 16808 ft | 428 kts | 148° |
| 2026-04-21 06:45 | 47.15093 | -118.97529 | 16809 ft | 423 kts | 161° |
| 2026-04-21 06:46 | 47.12276 | -118.96302 | 16809 ft | 421 kts | 169° |
| 2026-04-21 06:46 | 47.09391 | -118.95566 | 16807 ft | 420 kts | 174° |
| 2026-04-21 06:46 | 47.06479 | -118.95221 | 16806 ft | 420 kts | 179° |
| 2026-04-21 06:46 | 47.03564 | -118.95229 | 16800 ft | 419 kts | 184° |
| 2026-04-21 06:47 | 47.00659 | -118.95478 | 16796 ft | 420 kts | 181° |
| 2026-04-21 06:47 | 46.97785 | -118.95141 | 16801 ft | 421 kts | 174° |
| 2026-04-21 06:47 | 46.94893 | -118.94427 | 16802 ft | 422 kts | 171° |
| 2026-04-21 06:47 | 46.92017 | -118.93573 | 16802 ft | 422 kts | 170° |
| 2026-04-21 06:48 | 46.89127 | -118.92872 | 16798 ft | 421 kts | 176° |
| 2026-04-21 06:48 | 46.86210 | -118.92782 | 16790 ft | 419 kts | 185° |
| 2026-04-21 06:48 | 46.83354 | -118.93357 | 16796 ft | 412 kts | 193° |
| 2026-04-21 06:48 | 46.80612 | -118.94608 | 16796 ft | 413 kts | 202° |
| 2026-04-21 06:49 | 46.77912 | -118.96029 | 16798 ft | 413 kts | 195° |
| 2026-04-21 06:49 | 46.75067 | -118.96570 | 16799 ft | 415 kts | 181° |
| 2026-04-21 06:49 | 46.72196 | -118.96101 | 16794 ft | 417 kts | 168° |
| 2026-04-21 06:49 | 46.69497 | -118.94680 | 16798 ft | 421 kts | 155° |
| 2026-04-21 06:50 | 46.67043 | -118.92335 | 16790 ft | 425 kts | 142° |
| 2026-04-21 06:50 | 46.65014 | -118.89184 | 16795 ft | 430 kts | 129° |
| 2026-04-21 06:50 | 46.63536 | -118.85381 | 16792 ft | 436 kts | 115° |
| 2026-04-21 06:50 | 46.62698 | -118.81132 | 16789 ft | 441 kts | 102° |
| 2026-04-21 06:51 | 46.62535 | -118.76660 | 16798 ft | 445 kts | 91° |
| 2026-04-21 06:51 | 46.62740 | -118.72163 | 16790 ft | 448 kts | 83° |
| 2026-04-21 06:51 | 46.63488 | -118.67757 | 16786 ft | 450 kts | 72° |
| 2026-04-21 06:51 | 46.64800 | -118.63590 | 16792 ft | 455 kts | 60° |
| 2026-04-21 06:52 | 46.66638 | -118.59851 | 16793 ft | 456 kts | 49° |
| 2026-04-21 06:52 | 46.68905 | -118.56720 | 16789 ft | 457 kts | 38° |
| 2026-04-21 06:52 | 46.71583 | -118.54240 | 16796 ft | 456 kts | 26° |
| 2026-04-21 06:52 | 46.74529 | -118.52561 | 16799 ft | 455 kts | 14° |
| 2026-04-21 06:53 | 46.77626 | -118.51746 | 16798 ft | 451 kts | 3° |
| 2026-04-21 06:53 | 46.80765 | -118.51726 | 16793 ft | 450 kts | 353° |
| 2026-04-21 06:53 | 46.83820 | -118.52611 | 16803 ft | 447 kts | 340° |
| 2026-04-21 06:53 | 46.86630 | -118.54473 | 16800 ft | 443 kts | 326° |
| 2026-04-21 06:54 | 46.89047 | -118.57205 | 16803 ft | 438 kts | 312° |
| 2026-04-21 06:54 | 46.90945 | -118.60650 | 16803 ft | 433 kts | 299° |
| 2026-04-21 06:54 | 46.92222 | -118.64603 | 16800 ft | 429 kts | 285° |
| 2026-04-21 06:54 | 46.92811 | -118.68788 | 16805 ft | 424 kts | 272° |
| 2026-04-21 06:55 | 46.92702 | -118.73072 | 16802 ft | 421 kts | 258° |
| 2026-04-21 06:55 | 46.91894 | -118.77161 | 16803 ft | 419 kts | 245° |
| 2026-04-21 06:55 | 46.90438 | -118.80826 | 16803 ft | 417 kts | 231° |
| 2026-04-21 06:55 | 46.88425 | -118.83846 | 16804 ft | 414 kts | 218° |
| 2026-04-21 06:56 | 46.85979 | -118.86043 | 16798 ft | 415 kts | 204° |
| 2026-04-21 06:56 | 46.83227 | -118.87304 | 16802 ft | 416 kts | 191° |
| 2026-04-21 06:56 | 46.80337 | -118.87547 | 16801 ft | 418 kts | 177° |
| 2026-04-21 06:56 | 46.77500 | -118.86762 | 16796 ft | 419 kts | 163° |
| 2026-04-21 06:57 | 46.74847 | -118.84973 | 16800 ft | 422 kts | 150° |
| 2026-04-21 06:57 | 46.72575 | -118.82333 | 16789 ft | 427 kts | 137° |
| 2026-04-21 06:57 | 46.70748 | -118.78898 | 16799 ft | 432 kts | 123° |
| 2026-04-21 06:57 | 46.69509 | -118.74889 | 16782 ft | 438 kts | 110° |
| 2026-04-21 06:58 | 46.68937 | -118.70499 | 16790 ft | 445 kts | 96° |
| 2026-04-21 06:58 | 46.69071 | -118.65981 | 16796 ft | 450 kts | 83° |
| 2026-04-21 06:58 | 46.69900 | -118.61588 | 16788 ft | 453 kts | 70° |
| 2026-04-21 06:58 | 46.71143 | -118.57371 | 16797 ft | 453 kts | 67° |
| 2026-04-21 06:59 | 46.72433 | -118.53179 | 16789 ft | 453 kts | 69° |
| 2026-04-21 06:59 | 46.73325 | -118.48808 | 16790 ft | 450 kts | 82° |
| 2026-04-21 06:59 | 46.73514 | -118.44351 | 16794 ft | 445 kts | 96° |
| 2026-04-21 06:59 | 46.73003 | -118.39933 | 16798 ft | 441 kts | 109° |
| 2026-04-21 07:00 | 46.71820 | -118.35852 | 16795 ft | 436 kts | 123° |
| 2026-04-21 07:00 | 46.70037 | -118.32330 | 16801 ft | 430 kts | 136° |
| 2026-04-21 07:00 | 46.67760 | -118.29550 | 16793 ft | 426 kts | 150° |
| 2026-04-21 07:00 | 46.65120 | -118.27664 | 16801 ft | 421 kts | 163° |
| 2026-04-21 07:01 | 46.62279 | -118.26770 | 16792 ft | 418 kts | 177° |
| 2026-04-21 07:01 | 46.59390 | -118.26909 | 16797 ft | 415 kts | 191° |
| 2026-04-21 07:01 | 46.54206 | -118.30118 | 16794 ft | 411 kts | 217° |
| 2026-04-21 07:02 | 46.52167 | -118.33022 | 16786 ft | 412 kts | 231° |
| 2026-04-21 07:02 | 46.50682 | -118.36577 | 16789 ft | 414 kts | 244° |
| 2026-04-21 07:02 | 46.49838 | -118.40575 | 16784 ft | 417 kts | 258° |
| 2026-04-21 07:02 | 46.49690 | -118.44793 | 16791 ft | 422 kts | 271° |
| 2026-04-21 07:03 | 46.50252 | -118.48987 | 16785 ft | 427 kts | 285° |
| 2026-04-21 07:03 | 46.51503 | -118.52917 | 16803 ft | 433 kts | 298° |
| 2026-04-21 07:03 | 46.53294 | -118.56445 | 16785 ft | 436 kts | 307° |
| 2026-04-21 07:03 | 46.55288 | -118.59699 | 16787 ft | 440 kts | 310° |
| 2026-04-21 07:04 | 46.57409 | -118.62924 | 16787 ft | 439 kts | 311° |
| 2026-04-21 07:04 | 46.59556 | -118.66099 | 16782 ft | 442 kts | 312° |
| 2026-04-21 07:04 | 46.61718 | -118.69269 | 16789 ft | 441 kts | 311° |
| 2026-04-21 07:04 | 46.64063 | -118.72159 | 16784 ft | 445 kts | 324° |
| 2026-04-21 07:05 | 46.66835 | -118.74224 | 16787 ft | 450 kts | 338° |
| 2026-04-21 07:05 | 46.69833 | -118.75543 | 16791 ft | 451 kts | 343° |
| 2026-04-21 07:05 | 46.71856 | -118.76212 | 16789 ft | 448 kts | 348° |
| 2026-04-21 07:05 | 46.74965 | -118.76639 | 16789 ft | 452 kts | 359° |
| 2026-04-21 07:06 | 46.79072 | -118.75706 | 16799 ft | 454 kts | 17° |
| 2026-04-21 07:06 | 46.81962 | -118.73870 | 16801 ft | 454 kts | 28° |
| 2026-04-21 07:06 | 46.84651 | -118.71442 | 16797 ft | 455 kts | 34° |
| 2026-04-21 07:06 | 46.87258 | -118.68820 | 16800 ft | 455 kts | 34° |
| 2026-04-21 07:07 | 46.89903 | -118.66298 | 16797 ft | 454 kts | 30° |
| 2026-04-21 07:07 | 46.91735 | -118.64804 | 16800 ft | 454 kts | 27° |
| 2026-04-21 07:07 | 46.94540 | -118.62679 | 16801 ft | 454 kts | 27° |
| 2026-04-21 07:07 | 46.97271 | -118.60390 | 16799 ft | 451 kts | 32° |
| 2026-04-21 07:08 | 47.00727 | -118.56882 | 16794 ft | 452 kts | 42° |
| 2026-04-21 07:08 | 47.02793 | -118.53507 | 16805 ft | 452 kts | 55° |
| 2026-04-21 07:08 | 47.04313 | -118.49493 | 16808 ft | 450 kts | 69° |
| 2026-04-21 07:08 | 47.05173 | -118.45102 | 16808 ft | 448 kts | 82° |
| 2026-04-21 07:09 | 47.05358 | -118.42098 | 16808 ft | 446 kts | 91° |
| 2026-04-21 07:09 | 47.05048 | -118.37596 | 16814 ft | 443 kts | 104° |
| 2026-04-21 07:09 | 47.04051 | -118.33349 | 16805 ft | 439 kts | 118° |
| 2026-04-21 07:09 | 47.02427 | -118.29590 | 16812 ft | 436 kts | 132° |
| 2026-04-21 07:10 | 47.00270 | -118.26515 | 16805 ft | 431 kts | 145° |
| 2026-04-21 07:10 | 46.96812 | -118.23779 | 16802 ft | 425 kts | 163° |
| 2026-04-21 07:10 | 46.93943 | -118.22860 | 16809 ft | 421 kts | 177° |
| 2026-04-21 07:10 | 46.91974 | -118.22825 | 16809 ft | 419 kts | 186° |
| 2026-04-21 07:11 | 46.89159 | -118.23619 | 16800 ft | 417 kts | 199° |
| 2026-04-21 07:11 | 46.86542 | -118.25398 | 16800 ft | 415 kts | 212° |
| 2026-04-21 07:11 | 46.84212 | -118.27883 | 16802 ft | 415 kts | 219° |
| 2026-04-21 07:11 | 46.82010 | -118.30613 | 16798 ft | 415 kts | 220° |
| 2026-04-21 07:12 | 46.79781 | -118.33288 | 16794 ft | 415 kts | 218° |
| 2026-04-21 07:12 | 46.77444 | -118.35756 | 16794 ft | 414 kts | 214° |
| 2026-04-21 07:12 | 46.74989 | -118.37946 | 16790 ft | 413 kts | 209° |
| 2026-04-21 07:12 | 46.72412 | -118.39787 | 16795 ft | 414 kts | 201° |
| 2026-04-21 07:13 | 46.68686 | -118.40901 | 16790 ft | 416 kts | 183° |
| 2026-04-21 07:13 | 46.66767 | -118.40781 | 16791 ft | 418 kts | 174° |
| 2026-04-21 07:13 | 46.63939 | -118.39746 | 16792 ft | 422 kts | 161° |
| 2026-04-21 07:13 | 46.61339 | -118.37730 | 16790 ft | 427 kts | 147° |
| 2026-04-21 07:14 | 46.59120 | -118.34843 | 16787 ft | 432 kts | 134° |
| 2026-04-21 07:14 | 46.57410 | -118.31231 | 16795 ft | 437 kts | 120° |
| 2026-04-21 07:14 | 46.56311 | -118.27090 | 16789 ft | 443 kts | 107° |
| 2026-04-21 07:14 | 46.55888 | -118.22643 | 16794 ft | 448 kts | 93° |
| 2026-04-21 07:15 | 46.56174 | -118.18125 | 16792 ft | 453 kts | 80° |
| 2026-04-21 07:15 | 46.57159 | -118.13770 | 16782 ft | 456 kts | 66° |
| 2026-04-21 07:15 | 46.58771 | -118.09874 | 16788 ft | 458 kts | 53° |
| 2026-04-21 07:15 | 46.60971 | -118.06536 | 16803 ft | 458 kts | 39° |
| 2026-04-21 07:16 | 46.63624 | -118.03991 | 16791 ft | 458 kts | 26° |
| 2026-04-21 07:16 | 46.66587 | -118.02370 | 16790 ft | 452 kts | 12° |
| 2026-04-21 07:16 | 46.69697 | -118.01767 | 16799 ft | 451 kts | 359° |
| 2026-04-21 07:16 | 46.72808 | -118.02117 | 16792 ft | 448 kts | 349° |
| 2026-04-21 07:17 | 46.75885 | -118.02837 | 16798 ft | 448 kts | 348° |
| 2026-04-21 07:17 | 46.78970 | -118.03482 | 16793 ft | 449 kts | 351° |
| 2026-04-21 07:17 | 46.82045 | -118.03858 | 16796 ft | 450 kts | 355° |
| 2026-04-21 07:17 | 46.85177 | -118.03882 | 16795 ft | 451 kts | 360° |
| 2026-04-21 07:18 | 46.88294 | -118.04149 | 16802 ft | 447 kts | 348° |
| 2026-04-21 07:18 | 46.91246 | -118.05434 | 16800 ft | 441 kts | 334° |
| 2026-04-21 07:18 | 46.93886 | -118.07653 | 16801 ft | 436 kts | 320° |
| 2026-04-21 07:18 | 46.96075 | -118.10673 | 16806 ft | 432 kts | 307° |
| 2026-04-21 07:19 | 46.97691 | -118.14347 | 16986 ft | 428 kts | 292° |
| 2026-04-21 07:19 | 46.98623 | -118.18460 | 17515 ft | 426 kts | 279° |
| 2026-04-21 07:19 | 46.98859 | -118.22770 | 18037 ft | 425 kts | 266° |
| 2026-04-21 07:19 | 46.98507 | -118.27062 | 18473 ft | 426 kts | 264° |
| 2026-04-21 07:20 | 46.98605 | -118.31354 | 18858 ft | 432 kts | 277° |
| 2026-04-21 07:20 | 46.99397 | -118.35617 | 19249 ft | 438 kts | 289° |
| 2026-04-21 07:20 | 47.00853 | -118.39571 | 19622 ft | 446 kts | 302° |
| 2026-04-21 07:20 | 47.02904 | -118.43008 | 19985 ft | 453 kts | 315° |
| 2026-04-21 07:21 | 47.05464 | -118.45756 | 20347 ft | 460 kts | 328° |
| 2026-04-21 07:21 | 47.08408 | -118.47663 | 20657 ft | 467 kts | 340° |
| 2026-04-21 07:21 | 47.11609 | -118.48628 | 20974 ft | 473 kts | 353° |
| 2026-04-21 07:21 | 47.14916 | -118.48588 | 21285 ft | 479 kts | 6° |
| 2026-04-21 07:22 | 47.18177 | -118.47532 | 21583 ft | 483 kts | 18° |
| 2026-04-21 07:22 | 47.21203 | -118.45533 | 21864 ft | 486 kts | 31° |
| 2026-04-21 07:22 | 47.23937 | -118.42616 | 22163 ft | 487 kts | 43° |
| 2026-04-21 07:22 | 47.26213 | -118.38929 | 22424 ft | 488 kts | 55° |
| 2026-04-21 07:23 | 47.27930 | -118.34633 | 22682 ft | 487 kts | 68° |
| 2026-04-21 07:23 | 47.29011 | -118.29919 | 22944 ft | 485 kts | 80° |
| 2026-04-21 07:23 | 47.29408 | -118.25005 | 23203 ft | 483 kts | 92° |
| 2026-04-21 07:23 | 47.29111 | -118.20114 | 23416 ft | 479 kts | 105° |
| 2026-04-21 07:24 | 47.28136 | -118.15455 | 23629 ft | 474 kts | 117° |
| 2026-04-21 07:24 | 47.26562 | -118.11298 | 23814 ft | 470 kts | 129° |
| 2026-04-21 07:24 | 47.24549 | -118.07528 | 24015 ft | 468 kts | 134° |
| 2026-04-21 07:24 | 47.22360 | -118.03973 | 24201 ft | 469 kts | 137° |
| 2026-04-21 07:25 | 47.20099 | -118.00511 | 24369 ft | 470 kts | 138° |
| 2026-04-21 07:25 | 47.17802 | -117.97084 | 24556 ft | 471 kts | 139° |
| 2026-04-21 07:25 | 47.15487 | -117.93671 | 24726 ft | 473 kts | 139° |
| 2026-04-21 07:25 | 47.13134 | -117.90294 | 24888 ft | 472 kts | 143° |
| 2026-04-21 07:26 | 47.10492 | -117.87600 | 25066 ft | 467 kts | 155° |
| 2026-04-21 07:26 | 47.07511 | -117.85789 | 25259 ft | 462 kts | 167° |
| 2026-04-21 07:26 | 47.04364 | -117.84973 | 25447 ft | 459 kts | 179° |
| 2026-04-21 07:26 | 47.01190 | -117.85181 | 25661 ft | 457 kts | 191° |
| 2026-04-21 07:27 | 46.98133 | -117.86399 | 25878 ft | 456 kts | 203° |
| 2026-04-21 07:27 | 46.95320 | -117.88527 | 26111 ft | 456 kts | 212° |
| 2026-04-21 07:27 | 46.92679 | -117.91107 | 26345 ft | 458 kts | 215° |
| 2026-04-21 07:27 | 46.90059 | -117.93768 | 26578 ft | 459 kts | 214° |
| 2026-04-21 07:28 | 46.87378 | -117.96323 | 26823 ft | 461 kts | 212° |
| 2026-04-21 07:28 | 46.84579 | -117.98632 | 27086 ft | 463 kts | 206° |
| 2026-04-21 07:28 | 46.81641 | -118.00442 | 27372 ft | 465 kts | 201° |
| 2026-04-21 07:28 | 46.78579 | -118.02000 | 27674 ft | 468 kts | 199° |
| 2026-04-21 07:29 | 46.75494 | -118.03522 | 28060 ft | 467 kts | 201° |
| 2026-04-21 07:29 | 46.72491 | -118.05285 | 28580 ft | 465 kts | 204° |
| 2026-04-21 07:29 | 46.69530 | -118.07158 | 29165 ft | 463 kts | 204° |
| 2026-04-21 07:29 | 46.66530 | -118.08820 | 29788 ft | 461 kts | 197° |
| 2026-04-21 07:30 | 46.63371 | -118.09611 | 30380 ft | 462 kts | 185° |
| 2026-04-21 07:30 | 46.60157 | -118.09381 | 30944 ft | 465 kts | 173° |
| 2026-04-21 07:30 | 46.57033 | -118.08130 | 31549 ft | 469 kts | 162° |
| 2026-04-21 07:30 | 46.54172 | -118.05940 | 32161 ft | 475 kts | 150° |
| 2026-04-21 07:31 | 46.51630 | -118.02839 | 32817 ft | 482 kts | 139° |
| 2026-04-21 07:31 | 46.49558 | -117.98972 | 33464 ft | 490 kts | 127° |
| 2026-04-21 07:31 | 46.48052 | -117.94495 | 34015 ft | 499 kts | 115° |
| 2026-04-21 07:31 | 46.47186 | -117.89580 | 34519 ft | 508 kts | 103° |
| 2026-04-21 07:32 | 46.47008 | -117.84418 | 34984 ft | 518 kts | 92° |
| 2026-04-21 07:32 | 46.47535 | -117.79222 | 35413 ft | 526 kts | 80° |
| 2026-04-21 07:32 | 46.48759 | -117.74189 | 35805 ft | 533 kts | 68° |
| 2026-04-21 07:32 | 46.50609 | -117.69590 | 36150 ft | 539 kts | 56° |
| 2026-04-21 07:33 | 46.53077 | -117.65466 | 36451 ft | 543 kts | 44° |
| 2026-04-21 07:33 | 46.56043 | -117.62064 | 36747 ft | 545 kts | 31° |
| 2026-04-21 07:33 | 46.59391 | -117.59523 | 37029 ft | 543 kts | 19° |
| 2026-04-21 07:33 | 46.62994 | -117.57935 | 37296 ft | 540 kts | 7° |
| 2026-04-21 07:34 | 46.66703 | -117.57363 | 37566 ft | 533 kts | 355° |
| 2026-04-21 07:34 | 46.70362 | -117.57812 | 37809 ft | 524 kts | 343° |
| 2026-04-21 07:34 | 46.73832 | -117.59245 | 38050 ft | 514 kts | 332° |
| 2026-04-21 07:34 | 46.77109 | -117.61301 | 38280 ft | 511 kts | 328° |
| 2026-04-21 07:35 | 46.80304 | -117.63420 | 38468 ft | 512 kts | 330° |
| 2026-04-21 07:35 | 46.83610 | -117.65400 | 38623 ft | 516 kts | 333° |
| 2026-04-21 07:35 | 46.87030 | -117.67080 | 38779 ft | 521 kts | 338° |
| 2026-04-21 07:35 | 46.90558 | -117.68376 | 38941 ft | 525 kts | 343° |
| 2026-04-21 07:36 | 46.94184 | -117.69230 | 39108 ft | 530 kts | 349° |
| 2026-04-21 07:36 | 46.97876 | -117.69574 | 39291 ft | 534 kts | 356° |
| 2026-04-21 07:36 | 47.01595 | -117.69168 | 39467 ft | 539 kts | 7° |
| 2026-04-21 07:36 | 47.05267 | -117.67951 | 39651 ft | 542 kts | 13° |
| 2026-04-21 07:37 | 47.08827 | -117.66359 | 39823 ft | 543 kts | 15° |
| 2026-04-21 07:37 | 47.12425 | -117.64659 | 39976 ft | 543 kts | 14° |
| 2026-04-21 07:37 | 47.16069 | -117.63256 | 40149 ft | 541 kts | 9° |
| 2026-04-21 07:37 | 47.19730 | -117.62000 | 40312 ft | 542 kts | 17° |
| 2026-04-21 07:38 | 47.23215 | -117.59869 | 40515 ft | 544 kts | 28° |
| 2026-04-21 07:38 | 47.26376 | -117.56819 | 40686 ft | 544 kts | 40° |
| 2026-04-21 07:38 | 47.29092 | -117.52965 | 40860 ft | 540 kts | 52° |
| 2026-04-21 07:38 | 47.31256 | -117.48498 | 40860 ft | 534 kts | 63° |
| 2026-04-21 07:39 | 47.32794 | -117.43565 | 40863 ft | 527 kts | 76° |
| 2026-04-21 07:39 | 47.33652 | -117.38355 | 40864 ft | 520 kts | 88° |
| 2026-04-21 07:39 | 47.33813 | -117.33150 | 40865 ft | 513 kts | 99° |
| 2026-04-21 07:39 | 47.33284 | -117.28006 | 40868 ft | 503 kts | 111° |
| 2026-04-21 07:40 | 47.32098 | -117.23221 | 40862 ft | 493 kts | 123° |
| 2026-04-21 07:40 | 47.30318 | -117.18990 | 40869 ft | 481 kts | 135° |
| 2026-04-21 07:40 | 47.25847 | -117.11792 | 40880 ft | 475 kts | 139° |
| 2026-04-21 07:41 | 47.21521 | -117.04378 | 40875 ft | 480 kts | 133° |
| 2026-04-21 07:41 | 47.17889 | -116.96130 | 40881 ft | 488 kts | 124° |
| 2026-04-21 07:42 | 47.15164 | -116.86904 | 40867 ft | 497 kts | 111° |
| 2026-04-21 07:42 | 47.14041 | -116.76733 | 40857 ft | 511 kts | 98° |
| 2026-04-21 07:43 | 47.13582 | -116.66317 | 40853 ft | 509 kts | 102° |
| 2026-04-21 07:43 | 47.12461 | -116.56094 | 40841 ft | 507 kts | 104° |
| 2026-04-21 07:44 | 47.11590 | -116.45859 | 40838 ft | 510 kts | 102° |
| 2026-04-21 07:44 | 47.10612 | -116.35562 | 40823 ft | 510 kts | 103° |
| 2026-04-21 07:45 | 47.09645 | -116.25243 | 40805 ft | 510 kts | 102° |
| 2026-04-21 07:45 | 47.08679 | -116.14957 | 40799 ft | 508 kts | 103° |
| 2026-04-21 07:46 | 47.07686 | -116.04686 | 40799 ft | 509 kts | 103° |
| 2026-04-21 07:46 | 47.06710 | -115.94487 | 40798 ft | 509 kts | 103° |
| 2026-04-21 07:47 | 47.05698 | -115.84178 | 40792 ft | 512 kts | 103° |
| 2026-04-21 07:47 | 47.04687 | -115.73850 | 40802 ft | 511 kts | 103° |
| 2026-04-21 07:48 | 47.03658 | -115.63543 | 40806 ft | 512 kts | 103° |
| 2026-04-21 07:48 | 47.02634 | -115.53294 | 40826 ft | 511 kts | 103° |
| 2026-04-21 07:49 | 47.01589 | -115.43000 | 40832 ft | 510 kts | 103° |
| 2026-04-21 07:49 | 47.00537 | -115.32704 | 40850 ft | 512 kts | 103° |
| 2026-04-21 07:50 | 46.99475 | -115.22386 | 40844 ft | 512 kts | 103° |
| 2026-04-21 07:50 | 46.98407 | -115.12138 | 40849 ft | 512 kts | 103° |
| 2026-04-21 07:51 | 46.97327 | -115.01840 | 40860 ft | 512 kts | 103° |
| 2026-04-21 07:51 | 46.96235 | -114.91536 | 40849 ft | 511 kts | 103° |
| 2026-04-21 07:52 | 46.95137 | -114.81252 | 40851 ft | 512 kts | 103° |
| 2026-04-21 07:52 | 46.94038 | -114.71066 | 40853 ft | 511 kts | 104° |
| 2026-04-21 07:53 | 46.92922 | -114.60800 | 40866 ft | 510 kts | 104° |
| 2026-04-21 07:53 | 46.91795 | -114.50531 | 40876 ft | 512 kts | 104° |
| 2026-04-21 07:54 | 46.90660 | -114.40271 | 40879 ft | 512 kts | 103° |
| 2026-04-21 07:54 | 46.89523 | -114.30072 | 40915 ft | 513 kts | 104° |
| 2026-04-21 07:55 | 46.88365 | -114.19786 | 40909 ft | 513 kts | 104° |
| 2026-04-21 07:55 | 46.87199 | -114.09501 | 40919 ft | 513 kts | 104° |
| 2026-04-21 07:56 | 46.86023 | -113.99219 | 40920 ft | 513 kts | 104° |
| 2026-04-21 07:56 | 46.84840 | -113.88966 | 40906 ft | 512 kts | 104° |
| 2026-04-21 07:57 | 46.83654 | -113.78766 | 40906 ft | 514 kts | 104° |
| 2026-04-21 07:57 | 46.82448 | -113.68473 | 40904 ft | 514 kts | 104° |
| 2026-04-21 07:58 | 46.81233 | -113.58183 | 40914 ft | 514 kts | 104° |
| 2026-04-21 07:58 | 46.80007 | -113.47899 | 40911 ft | 514 kts | 104° |
| 2026-04-21 07:59 | 46.78782 | -113.37708 | 40923 ft | 515 kts | 104° |
| 2026-04-21 07:59 | 46.77536 | -113.27398 | 40924 ft | 517 kts | 104° |
| 2026-04-21 08:00 | 46.76279 | -113.17082 | 40915 ft | 517 kts | 104° |
| 2026-04-21 08:00 | 46.75010 | -113.06769 | 40918 ft | 517 kts | 104° |
| 2026-04-21 08:01 | 46.73744 | -112.96543 | 40914 ft | 515 kts | 104° |
| 2026-04-21 08:02 | 46.71807 | -112.81063 | 40893 ft | 518 kts | 104° |
| 2026-04-21 08:02 | 46.70501 | -112.70718 | 40900 ft | 519 kts | 104° |
| 2026-04-21 08:03 | 46.69195 | -112.60451 | 40891 ft | 519 kts | 104° |
| 2026-04-21 08:03 | 46.67869 | -112.50110 | 40892 ft | 519 kts | 104° |
| 2026-04-21 08:04 | 46.66535 | -112.39787 | 40908 ft | 520 kts | 104° |
| 2026-04-21 08:04 | 46.65188 | -112.29423 | 40926 ft | 521 kts | 104° |
| 2026-04-21 08:05 | 46.63839 | -112.19136 | 40941 ft | 521 kts | 104° |
| 2026-04-21 08:05 | 46.62473 | -112.08788 | 40952 ft | 521 kts | 104° |
| 2026-04-21 08:06 | 46.61099 | -111.98458 | 40950 ft | 520 kts | 104° |
| 2026-04-21 08:06 | 46.59947 | -111.88036 | 40949 ft | 524 kts | 101° |
| 2026-04-21 08:07 | 46.58864 | -111.77567 | 40938 ft | 524 kts | 101° |
| 2026-04-21 08:07 | 46.57793 | -111.67150 | 40923 ft | 525 kts | 101° |
| 2026-04-21 08:08 | 46.56696 | -111.56670 | 40884 ft | 523 kts | 101° |
| 2026-04-21 08:08 | 46.55598 | -111.46225 | 40845 ft | 523 kts | 101° |
| 2026-04-21 08:09 | 46.54484 | -111.35745 | 40851 ft | 525 kts | 101° |
| 2026-04-21 08:09 | 46.53369 | -111.25338 | 40857 ft | 525 kts | 101° |
| 2026-04-21 08:10 | 46.52236 | -111.14868 | 40859 ft | 524 kts | 101° |
| 2026-04-21 08:10 | 46.51095 | -111.04406 | 40861 ft | 525 kts | 101° |
| 2026-04-21 08:11 | 46.49941 | -110.93934 | 40862 ft | 526 kts | 101° |
| 2026-04-21 08:11 | 46.48779 | -110.83461 | 40852 ft | 525 kts | 101° |
| 2026-04-21 08:12 | 46.47615 | -110.73066 | 40840 ft | 526 kts | 101° |
| 2026-04-21 08:12 | 46.46432 | -110.62596 | 40839 ft | 526 kts | 101° |
| 2026-04-21 08:13 | 46.45241 | -110.52138 | 40850 ft | 525 kts | 101° |
| 2026-04-21 08:13 | 46.44037 | -110.41659 | 40855 ft | 528 kts | 101° |
| 2026-04-21 08:14 | 46.42831 | -110.31243 | 40853 ft | 527 kts | 101° |
| 2026-04-21 08:14 | 46.41607 | -110.20766 | 40853 ft | 528 kts | 101° |
| 2026-04-21 08:15 | 46.40375 | -110.10299 | 40850 ft | 526 kts | 101° |
| 2026-04-21 08:15 | 46.39133 | -109.99844 | 40857 ft | 527 kts | 101° |
| 2026-04-21 08:16 | 46.37882 | -109.89391 | 40884 ft | 527 kts | 101° |
| 2026-04-21 08:16 | 46.36631 | -109.79019 | 40880 ft | 526 kts | 101° |
| 2026-04-21 08:17 | 46.35361 | -109.68580 | 40893 ft | 527 kts | 101° |
| 2026-04-21 08:17 | 46.34082 | -109.58144 | 40903 ft | 527 kts | 101° |
| 2026-04-21 08:18 | 46.32788 | -109.47669 | 40885 ft | 529 kts | 101° |
| 2026-04-21 08:18 | 46.31495 | -109.37291 | 40882 ft | 527 kts | 101° |
| 2026-04-21 08:19 | 46.30187 | -109.26864 | 40881 ft | 527 kts | 101° |
| 2026-04-21 08:19 | 46.28868 | -109.16436 | 40874 ft | 527 kts | 101° |
| 2026-04-21 08:20 | 46.27538 | -109.06000 | 40879 ft | 529 kts | 101° |
| 2026-04-21 08:20 | 46.26196 | -108.95542 | 40869 ft | 529 kts | 101° |
| 2026-04-21 08:21 | 46.24853 | -108.85163 | 40872 ft | 529 kts | 101° |
| 2026-04-21 08:21 | 46.23490 | -108.74706 | 40860 ft | 529 kts | 101° |
| 2026-04-21 08:22 | 46.22118 | -108.64265 | 40859 ft | 530 kts | 101° |
| 2026-04-21 08:22 | 46.20734 | -108.53799 | 40862 ft | 531 kts | 101° |
| 2026-04-21 08:23 | 46.19350 | -108.43416 | 40859 ft | 530 kts | 101° |
| 2026-04-21 08:23 | 46.17949 | -108.32981 | 40855 ft | 530 kts | 101° |
| 2026-04-21 08:24 | 46.16538 | -108.22542 | 40849 ft | 531 kts | 101° |
| 2026-04-21 08:24 | 46.15112 | -108.12074 | 40849 ft | 532 kts | 101° |
| 2026-04-21 08:25 | 46.13678 | -108.01621 | 40836 ft | 530 kts | 101° |
| 2026-04-21 08:25 | 46.12246 | -107.91262 | 40834 ft | 530 kts | 101° |
| 2026-04-21 08:26 | 46.10797 | -107.80842 | 40837 ft | 531 kts | 102° |
| 2026-04-21 08:26 | 46.09334 | -107.70409 | 40850 ft | 533 kts | 101° |
| 2026-04-21 08:27 | 46.07859 | -107.59950 | 40855 ft | 533 kts | 101° |
| 2026-04-21 08:27 | 46.06384 | -107.49572 | 40855 ft | 532 kts | 102° |
| 2026-04-21 08:28 | 46.04892 | -107.39142 | 40855 ft | 532 kts | 102° |
| 2026-04-21 08:28 | 46.03390 | -107.28718 | 40864 ft | 531 kts | 101° |
| 2026-04-21 08:29 | 46.01876 | -107.18283 | 40876 ft | 533 kts | 101° |
| 2026-04-21 08:29 | 46.00353 | -107.07855 | 40873 ft | 533 kts | 101° |
| 2026-04-21 08:30 | 45.98832 | -106.97509 | 40881 ft | 533 kts | 101° |
| 2026-04-21 08:30 | 45.97288 | -106.87084 | 40880 ft | 533 kts | 102° |
| 2026-04-21 08:31 | 45.95734 | -106.76653 | 40884 ft | 535 kts | 101° |
| 2026-04-21 08:31 | 45.94168 | -106.66210 | 40865 ft | 534 kts | 101° |
| 2026-04-21 08:32 | 45.92605 | -106.55866 | 40881 ft | 533 kts | 101° |
| 2026-04-21 08:32 | 45.91024 | -106.45460 | 40881 ft | 534 kts | 102° |
| 2026-04-21 08:33 | 45.89430 | -106.35043 | 40882 ft | 535 kts | 101° |
| 2026-04-21 08:33 | 45.87824 | -106.24609 | 40891 ft | 535 kts | 101° |
| 2026-04-21 08:34 | 45.86208 | -106.14188 | 40897 ft | 535 kts | 101° |
| 2026-04-21 08:34 | 45.84595 | -106.03847 | 40889 ft | 535 kts | 101° |
| 2026-04-21 08:35 | 45.82966 | -105.93470 | 40887 ft | 532 kts | 102° |
| 2026-04-21 08:35 | 45.81329 | -105.83108 | 40891 ft | 533 kts | 101° |
| 2026-04-21 08:36 | 45.79681 | -105.72741 | 40894 ft | 534 kts | 101° |
| 2026-04-21 08:36 | 45.78033 | -105.62437 | 40894 ft | 534 kts | 101° |
| 2026-04-21 08:37 | 45.76365 | -105.52071 | 40905 ft | 534 kts | 102° |
| 2026-04-21 08:37 | 45.74685 | -105.41706 | 40907 ft | 534 kts | 102° |
| 2026-04-21 08:38 | 45.72998 | -105.31347 | 40911 ft | 534 kts | 102° |
| 2026-04-21 08:38 | 45.71311 | -105.21061 | 40922 ft | 534 kts | 102° |
| 2026-04-21 08:39 | 45.69604 | -105.10715 | 40928 ft | 535 kts | 102° |
| 2026-04-21 08:39 | 45.67886 | -105.00364 | 40922 ft | 535 kts | 102° |
| 2026-04-21 08:40 | 45.66158 | -104.90013 | 40924 ft | 535 kts | 102° |
| 2026-04-21 08:40 | 45.64422 | -104.79681 | 40927 ft | 534 kts | 102° |
| 2026-04-21 08:41 | 45.62691 | -104.69436 | 40921 ft | 534 kts | 102° |
| 2026-04-21 08:41 | 45.60942 | -104.59151 | 40949 ft | 533 kts | 102° |
| 2026-04-21 08:42 | 45.59181 | -104.48849 | 40933 ft | 534 kts | 102° |
| 2026-04-21 08:42 | 45.57410 | -104.38555 | 40929 ft | 534 kts | 102° |
| 2026-04-21 08:43 | 45.55643 | -104.28339 | 40935 ft | 534 kts | 102° |
| 2026-04-21 08:43 | 45.53857 | -104.18074 | 40932 ft | 533 kts | 102° |
| 2026-04-21 08:44 | 45.52106 | -104.08072 | 40938 ft | 533 kts | 102° |
| 2026-04-21 08:44 | 45.50302 | -103.97815 | 40921 ft | 533 kts | 102° |
| 2026-04-21 08:45 | 45.48504 | -103.87663 | 40925 ft | 532 kts | 102° |
| 2026-04-21 08:45 | 45.46684 | -103.77433 | 40926 ft | 533 kts | 102° |
| 2026-04-21 08:46 | 45.44849 | -103.67189 | 40922 ft | 534 kts | 102° |
| 2026-04-21 08:46 | 45.43010 | -103.56969 | 40928 ft | 533 kts | 102° |
| 2026-04-21 08:47 | 45.41162 | -103.46762 | 40922 ft | 532 kts | 102° |
| 2026-04-21 08:47 | 45.39319 | -103.36635 | 40924 ft | 532 kts | 102° |
| 2026-04-21 08:48 | 45.37455 | -103.26454 | 40958 ft | 532 kts | 102° |
| 2026-04-21 08:48 | 45.35578 | -103.16253 | 40929 ft | 533 kts | 102° |
| 2026-04-21 08:49 | 45.33692 | -103.06064 | 40928 ft | 533 kts | 102° |
| 2026-04-21 08:49 | 45.31797 | -102.95876 | 40927 ft | 533 kts | 102° |
| 2026-04-21 08:50 | 45.29905 | -102.85768 | 40931 ft | 533 kts | 102° |
| 2026-04-21 08:50 | 45.27987 | -102.75568 | 40934 ft | 535 kts | 102° |
| 2026-04-21 08:51 | 45.26058 | -102.65369 | 40923 ft | 535 kts | 102° |
| 2026-04-21 08:51 | 45.24122 | -102.55187 | 40932 ft | 534 kts | 102° |
| 2026-04-21 08:52 | 45.22179 | -102.45022 | 40931 ft | 534 kts | 102° |
| 2026-04-21 08:52 | 45.20239 | -102.34927 | 40940 ft | 536 kts | 102° |
| 2026-04-21 08:53 | 45.18273 | -102.24747 | 40941 ft | 535 kts | 102° |
| 2026-04-21 08:53 | 45.16296 | -102.14568 | 40940 ft | 536 kts | 102° |
| 2026-04-21 08:54 | 45.14305 | -102.04373 | 40946 ft | 537 kts | 103° |
| 2026-04-21 08:54 | 45.12321 | -101.94264 | 40939 ft | 535 kts | 103° |
| 2026-04-21 08:55 | 45.10320 | -101.84116 | 40933 ft | 535 kts | 103° |
| 2026-04-21 08:55 | 45.08307 | -101.73968 | 40933 ft | 535 kts | 103° |
| 2026-04-21 08:56 | 45.06372 | -101.64099 | 40936 ft | 535 kts | 102° |
| 2026-04-21 08:56 | 45.04440 | -101.54018 | 40946 ft | 535 kts | 102° |
| 2026-04-21 08:57 | 45.02449 | -101.43905 | 40933 ft | 534 kts | 102° |
| 2026-04-21 08:57 | 45.00475 | -101.33781 | 40923 ft | 534 kts | 102° |
| 2026-04-21 08:58 | 44.98479 | -101.23694 | 40925 ft | 533 kts | 102° |
| 2026-04-21 08:58 | 44.96499 | -101.13680 | 40923 ft | 533 kts | 102° |
| 2026-04-21 08:59 | 44.94489 | -101.03605 | 40919 ft | 533 kts | 102° |
| 2026-04-21 08:59 | 44.92477 | -100.93545 | 40913 ft | 533 kts | 102° |
| 2026-04-21 09:00 | 44.90450 | -100.83476 | 40918 ft | 533 kts | 103° |
| 2026-04-21 09:00 | 44.88428 | -100.73477 | 40919 ft | 534 kts | 103° |
| 2026-04-21 09:01 | 44.86385 | -100.63428 | 40920 ft | 532 kts | 102° |
| 2026-04-21 09:01 | 44.84342 | -100.53422 | 40915 ft | 532 kts | 102° |
| 2026-04-21 09:02 | 44.82287 | -100.43417 | 40915 ft | 532 kts | 103° |
| 2026-04-21 09:02 | 44.80223 | -100.33410 | 40915 ft | 532 kts | 103° |
| 2026-04-21 09:03 | 44.77129 | -100.18510 | 40918 ft | 530 kts | 103° |
| 2026-04-21 09:03 | 44.75050 | -100.08552 | 40914 ft | 531 kts | 103° |
| 2026-04-21 09:04 | 44.72962 | -99.98605 | 40899 ft | 529 kts | 103° |
| 2026-04-21 09:04 | 44.70932 | -99.88977 | 40889 ft | 530 kts | 103° |
| 2026-04-21 09:05 | 44.68843 | -99.79117 | 40889 ft | 530 kts | 104° |
| 2026-04-21 09:05 | 44.66728 | -99.69187 | 40887 ft | 530 kts | 104° |
| 2026-04-21 09:06 | 44.64606 | -99.59262 | 40898 ft | 531 kts | 104° |
| 2026-04-21 09:06 | 44.62470 | -99.49330 | 40896 ft | 532 kts | 104° |
| 2026-04-21 09:07 | 44.60342 | -99.39474 | 40875 ft | 531 kts | 104° |
| 2026-04-21 09:07 | 44.58195 | -99.29581 | 40870 ft | 530 kts | 104° |
| 2026-04-21 09:08 | 44.56041 | -99.19697 | 40874 ft | 530 kts | 104° |
| 2026-04-21 09:08 | 44.53876 | -99.09817 | 40875 ft | 530 kts | 104° |
| 2026-04-21 09:09 | 44.51724 | -99.00042 | 40880 ft | 527 kts | 105° |
| 2026-04-21 09:09 | 44.49555 | -98.90225 | 40874 ft | 528 kts | 105° |
| 2026-04-21 09:10 | 44.47375 | -98.80411 | 40874 ft | 528 kts | 105° |
| 2026-04-21 09:10 | 44.45185 | -98.70593 | 40893 ft | 528 kts | 105° |
| 2026-04-21 09:11 | 44.43000 | -98.60850 | 40879 ft | 524 kts | 105° |
| 2026-04-21 09:11 | 44.40824 | -98.51183 | 40881 ft | 525 kts | 105° |
| 2026-04-21 09:12 | 44.38624 | -98.41456 | 40886 ft | 524 kts | 105° |
| 2026-04-21 09:12 | 44.36418 | -98.31743 | 40894 ft | 524 kts | 106° |
| 2026-04-21 09:13 | 44.34266 | -98.22316 | 40899 ft | 523 kts | 106° |
| 2026-04-21 09:13 | 44.32062 | -98.12697 | 40884 ft | 523 kts | 106° |
| 2026-04-21 09:14 | 44.29836 | -98.03032 | 40884 ft | 523 kts | 106° |
| 2026-04-21 09:14 | 44.27604 | -97.93376 | 40878 ft | 522 kts | 107° |
| 2026-04-21 09:15 | 44.25367 | -97.83744 | 40874 ft | 522 kts | 107° |
| 2026-04-21 09:15 | 44.23132 | -97.74165 | 40885 ft | 523 kts | 107° |
| 2026-04-21 09:16 | 44.20872 | -97.64517 | 40874 ft | 523 kts | 107° |
| 2026-04-21 09:16 | 44.19357 | -97.58072 | 40899 ft | 523 kts | 107° |
| 2026-04-21 09:18 | 44.17941 | -97.52066 | 40881 ft | 523 kts | 107° |
| 2026-04-21 09:18 | 44.15669 | -97.42468 | 40882 ft | 522 kts | 108° |
| 2026-04-21 09:19 | 44.13390 | -97.32876 | 40886 ft | 522 kts | 108° |
| 2026-04-21 09:19 | 44.11101 | -97.23285 | 40884 ft | 522 kts | 108° |
| 2026-04-21 09:20 | 44.08819 | -97.13764 | 40880 ft | 522 kts | 108° |
| 2026-04-21 09:20 | 44.06513 | -97.04184 | 40891 ft | 522 kts | 108° |
| 2026-04-21 09:21 | 44.04201 | -96.94621 | 40891 ft | 522 kts | 108° |
| 2026-04-21 09:21 | 44.01943 | -96.85318 | 40871 ft | 521 kts | 108° |
| 2026-04-21 09:22 | 43.99633 | -96.75841 | 40895 ft | 522 kts | 108° |
| 2026-04-21 09:22 | 43.97300 | -96.66307 | 40897 ft | 521 kts | 108° |
| 2026-04-21 09:23 | 43.94961 | -96.56792 | 40893 ft | 521 kts | 108° |
| 2026-04-21 09:23 | 43.92614 | -96.47281 | 40884 ft | 521 kts | 108° |
| 2026-04-21 09:24 | 43.90267 | -96.37810 | 40895 ft | 523 kts | 109° |
| 2026-04-21 09:24 | 43.87899 | -96.28295 | 40894 ft | 522 kts | 109° |
| 2026-04-21 09:25 | 43.85523 | -96.18787 | 40881 ft | 522 kts | 109° |
| 2026-04-21 09:25 | 43.83197 | -96.09516 | 40880 ft | 523 kts | 109° |
| 2026-04-21 09:26 | 43.80796 | -95.99987 | 40892 ft | 525 kts | 109° |
| 2026-04-21 09:26 | 43.78385 | -95.90455 | 40897 ft | 525 kts | 109° |
| 2026-04-21 09:27 | 43.75980 | -95.80985 | 40893 ft | 525 kts | 109° |
| 2026-04-21 09:27 | 43.73551 | -95.71461 | 40894 ft | 525 kts | 109° |
| 2026-04-21 09:28 | 43.71112 | -95.61934 | 40883 ft | 526 kts | 109° |
| 2026-04-21 09:28 | 43.68682 | -95.52482 | 40879 ft | 525 kts | 109° |
| 2026-04-21 09:29 | 43.66226 | -95.42967 | 40875 ft | 526 kts | 109° |
| 2026-04-21 09:29 | 43.63761 | -95.33458 | 40874 ft | 525 kts | 110° |
| 2026-04-21 09:30 | 43.61285 | -95.23940 | 40887 ft | 527 kts | 110° |
| 2026-04-21 09:30 | 43.58797 | -95.14420 | 40887 ft | 527 kts | 110° |
| 2026-04-21 09:31 | 43.56320 | -95.04974 | 40885 ft | 527 kts | 110° |
| 2026-04-21 09:31 | 43.53819 | -94.95478 | 40881 ft | 527 kts | 110° |
| 2026-04-21 09:32 | 43.51308 | -94.85979 | 40875 ft | 528 kts | 110° |
| 2026-04-21 09:32 | 43.48781 | -94.76461 | 40877 ft | 529 kts | 110° |
| 2026-04-21 09:33 | 43.46263 | -94.67013 | 40887 ft | 529 kts | 110° |
| 2026-04-21 09:33 | 43.43725 | -94.57526 | 40885 ft | 528 kts | 110° |
| 2026-04-21 09:34 | 43.41179 | -94.48043 | 40904 ft | 528 kts | 110° |
| 2026-04-21 09:34 | 43.39058 | -94.40175 | 40890 ft | 528 kts | 110° |
| 2026-04-21 09:35 | 43.36499 | -94.30715 | 40884 ft | 528 kts | 110° |
| 2026-04-21 09:35 | 43.33517 | -94.19739 | 40901 ft | 529 kts | 110° |
| 2026-04-21 09:36 | 43.31373 | -94.11877 | 40885 ft | 529 kts | 110° |
| 2026-04-21 09:36 | 43.28785 | -94.02422 | 40900 ft | 529 kts | 110° |
| 2026-04-21 09:37 | 43.26191 | -93.92980 | 40906 ft | 529 kts | 110° |
| 2026-04-21 09:37 | 43.23589 | -93.83544 | 40909 ft | 529 kts | 111° |
| 2026-04-21 09:38 | 43.20981 | -93.74123 | 40891 ft | 529 kts | 111° |
| 2026-04-21 09:38 | 43.18378 | -93.64757 | 40901 ft | 530 kts | 111° |
| 2026-04-21 09:39 | 43.15749 | -93.55330 | 40904 ft | 530 kts | 111° |
| 2026-04-21 09:39 | 43.13111 | -93.45910 | 40906 ft | 530 kts | 111° |
| 2026-04-21 09:40 | 43.10033 | -93.34965 | 40903 ft | 530 kts | 111° |
| 2026-04-21 09:40 | 43.07904 | -93.27398 | 40902 ft | 529 kts | 111° |
| 2026-04-21 09:41 | 43.05273 | -93.18008 | 40901 ft | 529 kts | 111° |
| 2026-04-21 09:41 | 43.02620 | -93.08625 | 40902 ft | 529 kts | 111° |
| 2026-04-21 09:42 | 42.99968 | -92.99251 | 40917 ft | 529 kts | 111° |
| 2026-04-21 09:42 | 42.97303 | -92.89881 | 40909 ft | 529 kts | 111° |
| 2026-04-21 09:43 | 42.94648 | -92.80577 | 40918 ft | 529 kts | 111° |
| 2026-04-21 09:43 | 42.91966 | -92.71215 | 40921 ft | 530 kts | 111° |
| 2026-04-21 09:44 | 42.89276 | -92.61856 | 40930 ft | 531 kts | 112° |
| 2026-04-21 09:44 | 42.86575 | -92.52495 | 40940 ft | 530 kts | 112° |
| 2026-04-21 09:45 | 42.83889 | -92.43222 | 40945 ft | 529 kts | 112° |
| 2026-04-21 09:45 | 42.81182 | -92.33908 | 40944 ft | 529 kts | 112° |
| 2026-04-21 09:46 | 42.78464 | -92.24596 | 40951 ft | 530 kts | 112° |
| 2026-04-21 09:46 | 42.75734 | -92.15269 | 40949 ft | 530 kts | 112° |
| 2026-04-21 09:47 | 42.73018 | -92.06028 | 40946 ft | 530 kts | 112° |
| 2026-04-21 09:47 | 42.70277 | -91.96734 | 40944 ft | 529 kts | 112° |
| 2026-04-21 09:48 | 42.67530 | -91.87456 | 40955 ft | 530 kts | 112° |
| 2026-04-21 09:48 | 42.64769 | -91.78161 | 40965 ft | 531 kts | 112° |
| 2026-04-21 09:49 | 42.62001 | -91.68879 | 40969 ft | 530 kts | 112° |
| 2026-04-21 09:49 | 42.59244 | -91.59661 | 40983 ft | 530 kts | 112° |
| 2026-04-21 09:50 | 42.56457 | -91.50384 | 40967 ft | 532 kts | 112° |
| 2026-04-21 09:50 | 42.53662 | -91.41107 | 40973 ft | 531 kts | 112° |
| 2026-04-21 09:51 | 42.50887 | -91.31936 | 40974 ft | 531 kts | 112° |
| 2026-04-21 09:51 | 42.48094 | -91.22733 | 40989 ft | 532 kts | 112° |
| 2026-04-21 09:52 | 42.45273 | -91.13473 | 40988 ft | 532 kts | 112° |
| 2026-04-21 09:52 | 42.42441 | -91.04204 | 40993 ft | 533 kts | 112° |
| 2026-04-21 09:53 | 42.39600 | -90.94942 | 40989 ft | 533 kts | 113° |
| 2026-04-21 09:53 | 42.36767 | -90.85742 | 41008 ft | 534 kts | 113° |
| 2026-04-21 09:54 | 42.33933 | -90.76567 | 41008 ft | 533 kts | 113° |
| 2026-04-21 09:54 | 42.31071 | -90.67334 | 40991 ft | 534 kts | 113° |
| 2026-04-21 09:55 | 42.28198 | -90.58098 | 40994 ft | 533 kts | 113° |
| 2026-04-21 09:55 | 42.25340 | -90.48942 | 41006 ft | 533 kts | 113° |
| 2026-04-21 09:56 | 42.22452 | -90.39724 | 41024 ft | 533 kts | 113° |
| 2026-04-21 09:56 | 42.19560 | -90.30522 | 41036 ft | 533 kts | 113° |
| 2026-04-21 09:57 | 42.16649 | -90.21293 | 41029 ft | 535 kts | 113° |
| 2026-04-21 09:57 | 42.13733 | -90.12079 | 41028 ft | 534 kts | 113° |
| 2026-04-21 09:58 | 42.10829 | -90.02937 | 41032 ft | 534 kts | 113° |
| 2026-04-21 09:58 | 42.07899 | -89.93744 | 41051 ft | 534 kts | 113° |
| 2026-04-21 09:59 | 42.04964 | -89.84564 | 41056 ft | 534 kts | 113° |
| 2026-04-21 09:59 | 42.02517 | -89.76937 | 41070 ft | 534 kts | 113° |
| 2026-04-21 10:00 | 42.00725 | -89.71364 | 41074 ft | 534 kts | 113° |
| 2026-04-21 10:00 | 41.97787 | -89.62252 | 41079 ft | 536 kts | 114° |
| 2026-04-21 10:01 | 41.94810 | -89.53051 | 41079 ft | 537 kts | 114° |
| 2026-04-21 10:01 | 41.91831 | -89.43875 | 41075 ft | 536 kts | 114° |
| 2026-04-21 10:02 | 41.87367 | -89.30182 | 41080 ft | 537 kts | 114° |
| 2026-04-21 10:03 | 41.84363 | -89.21006 | 41066 ft | 537 kts | 114° |
| 2026-04-21 10:03 | 41.81359 | -89.11860 | 41070 ft | 535 kts | 114° |
| 2026-04-21 10:04 | 41.78352 | -89.02737 | 41076 ft | 535 kts | 114° |
| 2026-04-21 10:04 | 41.75355 | -88.93674 | 41092 ft | 538 kts | 114° |
| 2026-04-21 10:05 | 41.72318 | -88.84522 | 41111 ft | 537 kts | 114° |
| 2026-04-21 10:05 | 41.69279 | -88.75389 | 41083 ft | 537 kts | 114° |
| 2026-04-21 10:06 | 41.66230 | -88.66264 | 41089 ft | 538 kts | 114° |
| 2026-04-21 10:06 | 41.63172 | -88.57136 | 41094 ft | 537 kts | 114° |
| 2026-04-21 10:07 | 41.60133 | -88.48099 | 41085 ft | 537 kts | 114° |
| 2026-04-21 10:07 | 41.57061 | -88.38992 | 41119 ft | 537 kts | 114° |
| 2026-04-21 10:08 | 41.53978 | -88.29905 | 41131 ft | 538 kts | 116° |
| 2026-04-21 10:08 | 41.50387 | -88.21195 | 40649 ft | 541 kts | 121° |
| 2026-04-21 10:08 | 41.48524 | -88.16813 | 40011 ft | 545 kts | 118° |
| 2026-04-21 10:09 | 41.46785 | -88.12308 | 39398 ft | 546 kts | 117° |
| 2026-04-21 10:09 | 41.45046 | -88.07808 | 38821 ft | 547 kts | 118° |
| 2026-04-21 10:09 | 41.43213 | -88.03361 | 38162 ft | 547 kts | 120° |
| 2026-04-21 10:09 | 41.41366 | -87.98937 | 37548 ft | 545 kts | 118° |
| 2026-04-21 10:10 | 41.39577 | -87.94493 | 36970 ft | 543 kts | 118° |
| 2026-04-21 10:10 | 41.37814 | -87.90056 | 36386 ft | 542 kts | 118° |
| 2026-04-21 10:10 | 41.36044 | -87.85703 | 35800 ft | 541 kts | 118° |
| 2026-04-21 10:10 | 41.34234 | -87.81320 | 35218 ft | 541 kts | 118° |
| 2026-04-21 10:11 | 41.32436 | -87.76924 | 34619 ft | 542 kts | 118° |
| 2026-04-21 10:11 | 41.30647 | -87.72505 | 34023 ft | 544 kts | 118° |
| 2026-04-21 10:11 | 41.28840 | -87.68075 | 33404 ft | 546 kts | 118° |
| 2026-04-21 10:11 | 41.27011 | -87.63630 | 32796 ft | 549 kts | 118° |
| 2026-04-21 10:12 | 41.25180 | -87.59179 | 32182 ft | 549 kts | 118° |
| 2026-04-21 10:12 | 41.23354 | -87.54723 | 31567 ft | 549 kts | 118° |
| 2026-04-21 10:12 | 41.21549 | -87.50327 | 30952 ft | 549 kts | 118° |
| 2026-04-21 10:12 | 41.19713 | -87.45876 | 30320 ft | 550 kts | 119° |
| 2026-04-21 10:13 | 41.17868 | -87.41430 | 29629 ft | 548 kts | 121° |
| 2026-04-21 10:13 | 41.15680 | -87.37340 | 29187 ft | 539 kts | 134° |
| 2026-04-21 10:13 | 41.12989 | -87.33976 | 29175 ft | 531 kts | 146° |
| 2026-04-21 10:13 | 41.09859 | -87.31351 | 29165 ft | 534 kts | 158° |
| 2026-04-21 10:14 | 41.06430 | -87.29573 | 29176 ft | 525 kts | 169° |
| 2026-04-21 10:14 | 40.99304 | -87.27826 | 29168 ft | 519 kts | 177° |
| 2026-04-21 10:15 | 40.92221 | -87.26124 | 29180 ft | 525 kts | 170° |
| 2026-04-21 10:15 | 40.85343 | -87.22675 | 29172 ft | 532 kts | 159° |
| 2026-04-21 10:16 | 40.78610 | -87.18617 | 29171 ft | 530 kts | 163° |
| 2026-04-21 10:16 | 40.71688 | -87.15332 | 29184 ft | 529 kts | 163° |
| 2026-04-21 10:17 | 40.64902 | -87.11669 | 29192 ft | 531 kts | 162° |
| 2026-04-21 10:17 | 40.58017 | -87.08194 | 29194 ft | 530 kts | 163° |
| 2026-04-21 10:17 | 40.54591 | -87.06360 | 28974 ft | 536 kts | 159° |
| 2026-04-21 10:18 | 40.51258 | -87.04230 | 28592 ft | 530 kts | 157° |
| 2026-04-21 10:18 | 40.47980 | -87.02071 | 28239 ft | 524 kts | 158° |
| 2026-04-21 10:18 | 40.44696 | -86.99999 | 27893 ft | 523 kts | 159° |
| 2026-04-21 10:18 | 40.41410 | -86.97984 | 27541 ft | 520 kts | 158° |
| 2026-04-21 10:19 | 40.38153 | -86.95944 | 27206 ft | 518 kts | 158° |
| 2026-04-21 10:19 | 40.34913 | -86.93875 | 26876 ft | 518 kts | 158° |
| 2026-04-21 10:19 | 40.31715 | -86.91855 | 26528 ft | 516 kts | 158° |
| 2026-04-21 10:19 | 40.28483 | -86.89843 | 26185 ft | 513 kts | 158° |
| 2026-04-21 10:20 | 40.25270 | -86.87840 | 25851 ft | 510 kts | 158° |
| 2026-04-21 10:20 | 40.22074 | -86.85831 | 25515 ft | 508 kts | 158° |
| 2026-04-21 10:20 | 40.18893 | -86.83835 | 25171 ft | 506 kts | 158° |
| 2026-04-21 10:20 | 40.15724 | -86.81858 | 24856 ft | 504 kts | 158° |
| 2026-04-21 10:21 | 40.12559 | -86.79887 | 24513 ft | 502 kts | 158° |
| 2026-04-21 10:21 | 40.09416 | -86.77926 | 24184 ft | 500 kts | 158° |
| 2026-04-21 10:21 | 40.06327 | -86.76000 | 23868 ft | 498 kts | 158° |
| 2026-04-21 10:21 | 40.03209 | -86.74060 | 23501 ft | 495 kts | 158° |
| 2026-04-21 10:22 | 40.00197 | -86.71932 | 23215 ft | 494 kts | 148° |
| 2026-04-21 10:22 | 39.97563 | -86.69042 | 23207 ft | 499 kts | 134° |
| 2026-04-21 10:22 | 39.95415 | -86.65492 | 23218 ft | 499 kts | 122° |
| 2026-04-21 10:22 | 39.93708 | -86.61550 | 23225 ft | 499 kts | 116° |
| 2026-04-21 10:23 | 39.92168 | -86.57498 | 23225 ft | 499 kts | 115° |
| 2026-04-21 10:23 | 39.90572 | -86.53479 | 23228 ft | 501 kts | 119° |
| 2026-04-21 10:23 | 39.88711 | -86.49713 | 23234 ft | 501 kts | 126° |
| 2026-04-21 10:23 | 39.86620 | -86.46089 | 23231 ft | 501 kts | 128° |
| 2026-04-21 10:24 | 39.84482 | -86.42507 | 23083 ft | 500 kts | 127° |
| 2026-04-21 10:24 | 39.82505 | -86.38813 | 22560 ft | 496 kts | 123° |
| 2026-04-21 10:24 | 39.80775 | -86.34967 | 21969 ft | 490 kts | 115° |
| 2026-04-21 10:24 | 39.79373 | -86.30953 | 21357 ft | 485 kts | 111° |
| 2026-04-21 10:25 | 39.78113 | -86.26915 | 20757 ft | 480 kts | 111° |
| 2026-04-21 10:25 | 39.76783 | -86.22954 | 20173 ft | 476 kts | 114° |
| 2026-04-21 10:25 | 39.75396 | -86.19136 | 19639 ft | 471 kts | 115° |
| 2026-04-21 10:25 | 39.74027 | -86.15289 | 19071 ft | 467 kts | 112° |
| 2026-04-21 10:26 | 39.72729 | -86.11450 | 18537 ft | 462 kts | 112° |
| 2026-04-21 10:26 | 39.71435 | -86.07645 | 17935 ft | 458 kts | 113° |
| 2026-04-21 10:26 | 39.70120 | -86.03900 | 17349 ft | 453 kts | 113° |
| 2026-04-21 10:26 | 39.68821 | -86.00216 | 17065 ft | 445 kts | 113° |
| 2026-04-21 10:27 | 39.67546 | -85.96545 | 16783 ft | 446 kts | 112° |
| 2026-04-21 10:27 | 39.66282 | -85.92892 | 16487 ft | 442 kts | 113° |
| 2026-04-21 10:27 | 39.65015 | -85.89266 | 16199 ft | 440 kts | 113° |
| 2026-04-21 10:27 | 39.63750 | -85.85665 | 15911 ft | 437 kts | 113° |
| 2026-04-21 10:28 | 39.62513 | -85.82134 | 15611 ft | 434 kts | 113° |
| 2026-04-21 10:28 | 39.61275 | -85.78579 | 15333 ft | 432 kts | 111° |
| 2026-04-21 10:28 | 39.60157 | -85.74980 | 15048 ft | 429 kts | 110° |
| 2026-04-21 10:28 | 39.59028 | -85.71412 | 14763 ft | 426 kts | 111° |
| 2026-04-21 10:29 | 39.57903 | -85.67866 | 14483 ft | 424 kts | 110° |
| 2026-04-21 10:29 | 39.56800 | -85.64340 | 14191 ft | 421 kts | 110° |
| 2026-04-21 10:29 | 39.55706 | -85.60835 | 13905 ft | 418 kts | 110° |
| 2026-04-21 10:29 | 39.54611 | -85.57352 | 13622 ft | 417 kts | 111° |
| 2026-04-21 10:30 | 39.53538 | -85.53960 | 13350 ft | 407 kts | 111° |
| 2026-04-21 10:30 | 39.52481 | -85.50613 | 13074 ft | 397 kts | 111° |
| 2026-04-21 10:30 | 39.51288 | -85.47447 | 12811 ft | 388 kts | 122° |
| 2026-04-21 10:30 | 39.49775 | -85.44605 | 12563 ft | 379 kts | 127° |
| 2026-04-21 10:31 | 39.48189 | -85.41922 | 12308 ft | 372 kts | 127° |
| 2026-04-21 10:31 | 39.46675 | -85.39250 | 12069 ft | 365 kts | 125° |
| 2026-04-21 10:31 | 39.45241 | -85.36580 | 11830 ft | 358 kts | 124° |
| 2026-04-21 10:31 | 39.43820 | -85.33962 | 11597 ft | 353 kts | 125° |
| 2026-04-21 10:32 | 39.42395 | -85.31407 | 11367 ft | 347 kts | 126° |
| 2026-04-21 10:32 | 39.41010 | -85.28925 | 11148 ft | 343 kts | 126° |
| 2026-04-21 10:32 | 39.39889 | -85.26255 | 10948 ft | 336 kts | 108° |
| 2026-04-21 10:32 | 39.39221 | -85.23392 | 10700 ft | 328 kts | 102° |
| 2026-04-21 10:33 | 39.38682 | -85.20623 | 10442 ft | 307 kts | 103° |
| 2026-04-21 10:33 | 39.38111 | -85.17953 | 10239 ft | 308 kts | 105° |
| 2026-04-21 10:33 | 39.37497 | -85.15313 | 10034 ft | 308 kts | 105° |
| 2026-04-21 10:33 | 39.36892 | -85.12670 | 9836 ft | 306 kts | 105° |
| 2026-04-21 10:34 | 39.36306 | -85.10029 | 9646 ft | 305 kts | 105° |
| 2026-04-21 10:34 | 39.35724 | -85.07418 | 9458 ft | 292 kts | 105° |
| 2026-04-21 10:34 | 39.35191 | -85.05063 | 9257 ft | 263 kts | 105° |
| 2026-04-21 10:34 | 39.34700 | -85.02894 | 9151 ft | 242 kts | 104° |
| 2026-04-21 10:35 | 39.34229 | -85.00793 | 8792 ft | 244 kts | 104° |
| 2026-04-21 10:35 | 39.33758 | -84.98699 | 8440 ft | 242 kts | 104° |
| 2026-04-21 10:35 | 39.33287 | -84.96611 | 8119 ft | 242 kts | 104° |
| 2026-04-21 10:35 | 39.32816 | -84.94530 | 7802 ft | 241 kts | 105° |
| 2026-04-21 10:36 | 39.32346 | -84.92455 | 7474 ft | 240 kts | 105° |
| 2026-04-21 10:36 | 39.31682 | -84.90486 | 7156 ft | 239 kts | 117° |
| 2026-04-21 10:36 | 39.30934 | -84.88559 | 6847 ft | 240 kts | 117° |
| 2026-04-21 10:36 | 39.30196 | -84.86635 | 6535 ft | 239 kts | 116° |
| 2026-04-21 10:37 | 39.29474 | -84.84748 | 6199 ft | 236 kts | 117° |
| 2026-04-21 10:37 | 39.28746 | -84.82851 | 5884 ft | 235 kts | 117° |
| 2026-04-21 10:37 | 39.28024 | -84.80975 | 5561 ft | 233 kts | 117° |
| 2026-04-21 10:37 | 39.27307 | -84.79110 | 5242 ft | 231 kts | 118° |
| 2026-04-21 10:38 | 39.26599 | -84.77269 | 4899 ft | 228 kts | 118° |
| 2026-04-21 10:38 | 39.25901 | -84.75453 | 4600 ft | 223 kts | 118° |
| 2026-04-21 10:38 | 39.25214 | -84.73669 | 4326 ft | 220 kts | 119° |
| 2026-04-21 10:38 | 39.24536 | -84.71905 | 4069 ft | 218 kts | 119° |
| 2026-04-21 10:39 | 39.23881 | -84.70198 | 3820 ft | 217 kts | 120° |
| 2026-04-21 10:39 | 39.23225 | -84.68491 | 3545 ft | 214 kts | 120° |
| 2026-04-21 10:39 | 39.22571 | -84.66788 | 3197 ft | 210 kts | 121° |
| 2026-04-21 10:39 | 39.21792 | -84.65289 | 2842 ft | 196 kts | 144° |
| 2026-04-21 10:40 | 39.20610 | -84.64674 | 2481 ft | 181 kts | 179° |
| 2026-04-21 10:40 | 39.19362 | -84.64617 | 2420 ft | 180 kts | 180° |
| 2026-04-21 10:40 | 39.18113 | -84.64601 | 2411 ft | 183 kts | 182° |
| 2026-04-21 10:40 | 39.16859 | -84.64607 | 2412 ft | 181 kts | 183° |
| 2026-04-21 10:41 | 39.15611 | -84.64614 | 2407 ft | 181 kts | 182° |
| 2026-04-21 10:41 | 39.14374 | -84.64620 | 2399 ft | 180 kts | 183° |
| 2026-04-21 10:41 | 39.13121 | -84.64627 | 2402 ft | 180 kts | 182° |
| 2026-04-21 10:41 | 39.11874 | -84.64635 | 2170 ft | 177 kts | 182° |
| 2026-04-21 10:42 | 39.10645 | -84.64643 | 1931 ft | 176 kts | 181° |
| 2026-04-21 10:42 | 39.09406 | -84.64649 | 1697 ft | 179 kts | 181° |
| 2026-04-21 10:42 | 39.08153 | -84.64658 | 1428 ft | 181 kts | 180° |
| 2026-04-21 10:42 | 39.06882 | -84.64664 | 1193 ft | 186 kts | 179° |
| 2026-04-21 10:43 | 39.05617 | -84.64669 | 936 ft | 181 kts | 179° |
| 2026-04-21 10:43 | 39.04474 | -84.64671 | 886 ft | 139 kts | 181° |
| 2026-04-21 10:43 | 39.03773 | -84.64676 | 884 ft | 68 kts | 180° |
| 2026-04-21 10:43 | 39.03513 | -84.64678 | 888 ft | 12 kts | 180° |
| 2026-04-21 10:44 | 39.03434 | -84.64678 | 888 ft | 13 kts | 180° |
| 2026-04-21 10:44 | 39.03331 | -84.64678 | 890 ft | 17 kts | 180° |
| 2026-04-21 10:44 | 39.03203 | -84.64678 | 891 ft | 21 kts | 179° |
| 2026-04-21 10:44 | 39.03050 | -84.64690 | 887 ft | 20 kts | 197° |
| 2026-04-21 10:45 | 39.02987 | -84.64817 | 888 ft | 13 kts | 269° |
| 2026-04-21 10:45 | 39.02988 | -84.64885 | 890 ft | 9 kts | 275° |
| 2026-04-21 10:45 | 39.03008 | -84.64963 | 893 ft | 8 kts | 319° |
| 2026-04-21 10:45 | 39.03072 | -84.64986 | 894 ft | 12 kts | 351° |
| 2026-04-21 10:46 | 39.03174 | -84.65000 | 894 ft | 18 kts | 355° |
| 2026-04-21 10:46 | 39.03259 | -84.64998 | 894 ft | 14 kts | 5° |
| 2026-04-21 10:46 | 39.03366 | -84.64991 | 896 ft | 15 kts | 1° |
| 2026-04-21 10:46 | 39.03480 | -84.64998 | 895 ft | 17 kts | 351° |
| 2026-04-21 10:47 | 39.03558 | -84.65057 | 894 ft | 11 kts | 302° |
| 2026-04-21 10:47 | 39.03572 | -84.65125 | 895 ft | 6 kts | 272° |
| 2026-04-21 10:47 | 39.03574 | -84.65193 | 897 ft | 9 kts | 272° |
| 2026-04-21 10:47 | 39.03576 | -84.65299 | 897 ft | 15 kts | 270° |
| 2026-04-21 10:48 | 39.03576 | -84.65458 | 898 ft | 21 kts | 270° |
| 2026-04-21 10:48 | 39.03573 | -84.65618 | 895 ft | 17 kts | 262° |
| 2026-04-21 10:48 | 39.03579 | -84.65790 | 868 ft | 24 kts | 282° |
| 2026-04-21 10:48 | 39.03586 | -84.65848 | 879 ft | 3 kts | 270° |
| 2026-04-21 10:49 | 39.03584 | -84.65956 | 881 ft | 27 kts | 267° |
| 2026-04-21 10:49 | 39.03584 | -84.66221 | 877 ft | 32 kts | 273° |
| 2026-04-21 10:49 | 39.03593 | -84.66420 | 879 ft | 15 kts | 270° |
| 2026-04-21 10:49 | 39.03620 | -84.66473 | 880 ft | 3 kts | 355° |
| 2026-04-21 10:50 | 39.03649 | -84.66458 | 879 ft | 6 kts | 33° |
| 2026-04-21 10:50 | 39.03681 | -84.66417 | 877 ft | 0 kts | 62° |